<?xml version="1.0" encoding="UTF-8" standalone="no" ?>
<gpx xmlns="http://www.topografix.com/GPX/1/1" xmlns:xsi="http://www.w3.org/2001/XMLSchema-instance" xsi:schemaLocation="http://www.topografix.com/GPX/1/1 http://www.topografix.com/GPX/1/1/gpx.xsd" version="1.1" creator="VisuGPX - https://www.visugpx.com">
  <metadata>
    <name>parcours dolmen</name>
    <desc><![CDATA[sentier depart santoche]]></desc>
  </metadata>
  <trk>
    <name><![CDATA[parcours dolmen_1]]></name>
    <trkseg>
      <trkpt lat="47.40822" lon="6.50125">
        <ele>353.5</ele>
        <time>2013-02-19T14:35:04Z</time>
      </trkpt>
      <trkpt lat="47.40827" lon="6.50127">
        <ele>353.5</ele>
        <time>2013-02-19T14:35:09Z</time>
      </trkpt>
      <trkpt lat="47.40833" lon="6.50128">
        <ele>354.7</ele>
        <time>2013-02-19T14:35:14Z</time>
      </trkpt>
      <trkpt lat="47.40842" lon="6.50128">
        <ele>353.6</ele>
        <time>2013-02-19T14:35:19Z</time>
      </trkpt>
      <trkpt lat="47.4085" lon="6.50127">
        <ele>353.2</ele>
        <time>2013-02-19T14:35:24Z</time>
      </trkpt>
      <trkpt lat="47.40857" lon="6.50125">
        <ele>353.4</ele>
        <time>2013-02-19T14:35:29Z</time>
      </trkpt>
      <trkpt lat="47.40863" lon="6.50125">
        <ele>353.6</ele>
        <time>2013-02-19T14:35:34Z</time>
      </trkpt>
      <trkpt lat="47.4087" lon="6.50122">
        <ele>353.7</ele>
        <time>2013-02-19T14:35:39Z</time>
      </trkpt>
      <trkpt lat="47.40877" lon="6.50118">
        <ele>352.9</ele>
        <time>2013-02-19T14:35:44Z</time>
      </trkpt>
      <trkpt lat="47.40882" lon="6.50117">
        <ele>353.4</ele>
        <time>2013-02-19T14:35:49Z</time>
      </trkpt>
      <trkpt lat="47.40888" lon="6.50113">
        <ele>353.5</ele>
        <time>2013-02-19T14:35:54Z</time>
      </trkpt>
      <trkpt lat="47.40895" lon="6.5011">
        <ele>352.9</ele>
        <time>2013-02-19T14:35:59Z</time>
      </trkpt>
      <trkpt lat="47.409" lon="6.50108">
        <ele>353.4</ele>
        <time>2013-02-19T14:36:04Z</time>
      </trkpt>
      <trkpt lat="47.40905" lon="6.50107">
        <ele>352.8</ele>
        <time>2013-02-19T14:36:09Z</time>
      </trkpt>
      <trkpt lat="47.4091" lon="6.50103">
        <ele>353.1</ele>
        <time>2013-02-19T14:36:14Z</time>
      </trkpt>
      <trkpt lat="47.40917" lon="6.501">
        <ele>353.2</ele>
        <time>2013-02-19T14:36:19Z</time>
      </trkpt>
      <trkpt lat="47.40922" lon="6.50093">
        <ele>352.8</ele>
        <time>2013-02-19T14:36:24Z</time>
      </trkpt>
      <trkpt lat="47.40927" lon="6.50087">
        <ele>353.2</ele>
        <time>2013-02-19T14:36:29Z</time>
      </trkpt>
      <trkpt lat="47.40927" lon="6.50078">
        <ele>353.9</ele>
        <time>2013-02-19T14:36:34Z</time>
      </trkpt>
      <trkpt lat="47.40928" lon="6.5007">
        <ele>353.6</ele>
        <time>2013-02-19T14:36:39Z</time>
      </trkpt>
      <trkpt lat="47.40927" lon="6.5006">
        <ele>354.5</ele>
        <time>2013-02-19T14:36:44Z</time>
      </trkpt>
      <trkpt lat="47.40927" lon="6.5005">
        <ele>355.1</ele>
        <time>2013-02-19T14:36:49Z</time>
      </trkpt>
      <trkpt lat="47.40925" lon="6.50042">
        <ele>355.8</ele>
        <time>2013-02-19T14:36:54Z</time>
      </trkpt>
      <trkpt lat="47.40925" lon="6.50033">
        <ele>356.8</ele>
        <time>2013-02-19T14:36:59Z</time>
      </trkpt>
      <trkpt lat="47.40925" lon="6.50027">
        <ele>357.1</ele>
        <time>2013-02-19T14:37:04Z</time>
      </trkpt>
      <trkpt lat="47.40928" lon="6.50018">
        <ele>358</ele>
        <time>2013-02-19T14:37:09Z</time>
      </trkpt>
      <trkpt lat="47.40932" lon="6.5001">
        <ele>358.9</ele>
        <time>2013-02-19T14:37:14Z</time>
      </trkpt>
      <trkpt lat="47.40935" lon="6.50003">
        <ele>359.1</ele>
        <time>2013-02-19T14:37:19Z</time>
      </trkpt>
      <trkpt lat="47.40938" lon="6.49995">
        <ele>359.2</ele>
        <time>2013-02-19T14:37:24Z</time>
      </trkpt>
      <trkpt lat="47.40942" lon="6.49987">
        <ele>359.4</ele>
        <time>2013-02-19T14:37:29Z</time>
      </trkpt>
      <trkpt lat="47.40947" lon="6.49982">
        <ele>359.7</ele>
        <time>2013-02-19T14:37:34Z</time>
      </trkpt>
      <trkpt lat="47.4095" lon="6.49975">
        <ele>360</ele>
        <time>2013-02-19T14:37:39Z</time>
      </trkpt>
      <trkpt lat="47.40957" lon="6.49968">
        <ele>360.4</ele>
        <time>2013-02-19T14:37:44Z</time>
      </trkpt>
      <trkpt lat="47.4096" lon="6.4996">
        <ele>360.8</ele>
        <time>2013-02-19T14:37:49Z</time>
      </trkpt>
      <trkpt lat="47.40963" lon="6.49952">
        <ele>361</ele>
        <time>2013-02-19T14:37:54Z</time>
      </trkpt>
      <trkpt lat="47.40965" lon="6.49942">
        <ele>361.5</ele>
        <time>2013-02-19T14:37:59Z</time>
      </trkpt>
      <trkpt lat="47.4097" lon="6.49933">
        <ele>361.1</ele>
        <time>2013-02-19T14:38:04Z</time>
      </trkpt>
      <trkpt lat="47.40972" lon="6.49925">
        <ele>362.2</ele>
        <time>2013-02-19T14:38:09Z</time>
      </trkpt>
      <trkpt lat="47.40977" lon="6.49918">
        <ele>361.8</ele>
        <time>2013-02-19T14:38:14Z</time>
      </trkpt>
      <trkpt lat="47.40982" lon="6.4991">
        <ele>362.2</ele>
        <time>2013-02-19T14:38:19Z</time>
      </trkpt>
      <trkpt lat="47.40985" lon="6.499">
        <ele>362.8</ele>
        <time>2013-02-19T14:38:24Z</time>
      </trkpt>
      <trkpt lat="47.40988" lon="6.49892">
        <ele>362.4</ele>
        <time>2013-02-19T14:38:29Z</time>
      </trkpt>
      <trkpt lat="47.40993" lon="6.49883">
        <ele>362.6</ele>
        <time>2013-02-19T14:38:34Z</time>
      </trkpt>
      <trkpt lat="47.40997" lon="6.49875">
        <ele>362.9</ele>
        <time>2013-02-19T14:38:39Z</time>
      </trkpt>
      <trkpt lat="47.41002" lon="6.49868">
        <ele>363.2</ele>
        <time>2013-02-19T14:38:44Z</time>
      </trkpt>
      <trkpt lat="47.41007" lon="6.4986">
        <ele>363.2</ele>
        <time>2013-02-19T14:38:49Z</time>
      </trkpt>
      <trkpt lat="47.4101" lon="6.4985">
        <ele>363.5</ele>
        <time>2013-02-19T14:38:54Z</time>
      </trkpt>
      <trkpt lat="47.41017" lon="6.49838">
        <ele>364.2</ele>
        <time>2013-02-19T14:38:59Z</time>
      </trkpt>
      <trkpt lat="47.4102" lon="6.49827">
        <ele>364.2</ele>
        <time>2013-02-19T14:39:04Z</time>
      </trkpt>
      <trkpt lat="47.41025" lon="6.4982">
        <ele>364.6</ele>
        <time>2013-02-19T14:39:09Z</time>
      </trkpt>
      <trkpt lat="47.4103" lon="6.49813">
        <ele>364.8</ele>
        <time>2013-02-19T14:39:14Z</time>
      </trkpt>
      <trkpt lat="47.41035" lon="6.49807">
        <ele>365.2</ele>
        <time>2013-02-19T14:39:19Z</time>
      </trkpt>
      <trkpt lat="47.4104" lon="6.49797">
        <ele>365.9</ele>
        <time>2013-02-19T14:39:24Z</time>
      </trkpt>
      <trkpt lat="47.41042" lon="6.4979">
        <ele>366.1</ele>
        <time>2013-02-19T14:39:29Z</time>
      </trkpt>
      <trkpt lat="47.41045" lon="6.49783">
        <ele>366.3</ele>
        <time>2013-02-19T14:39:34Z</time>
      </trkpt>
      <trkpt lat="47.41048" lon="6.49775">
        <ele>366.8</ele>
        <time>2013-02-19T14:39:39Z</time>
      </trkpt>
      <trkpt lat="47.41052" lon="6.4977">
        <ele>367.3</ele>
        <time>2013-02-19T14:39:44Z</time>
      </trkpt>
      <trkpt lat="47.41058" lon="6.49767">
        <ele>367.6</ele>
        <time>2013-02-19T14:39:49Z</time>
      </trkpt>
      <trkpt lat="47.41063" lon="6.49762">
        <ele>367.9</ele>
        <time>2013-02-19T14:39:54Z</time>
      </trkpt>
      <trkpt lat="47.4107" lon="6.49757">
        <ele>368.3</ele>
        <time>2013-02-19T14:39:59Z</time>
      </trkpt>
      <trkpt lat="47.41077" lon="6.49752">
        <ele>368.7</ele>
        <time>2013-02-19T14:40:04Z</time>
      </trkpt>
      <trkpt lat="47.41082" lon="6.49745">
        <ele>369</ele>
        <time>2013-02-19T14:40:09Z</time>
      </trkpt>
      <trkpt lat="47.41087" lon="6.4974">
        <ele>369</ele>
        <time>2013-02-19T14:40:14Z</time>
      </trkpt>
      <trkpt lat="47.41092" lon="6.49735">
        <ele>369.6</ele>
        <time>2013-02-19T14:40:19Z</time>
      </trkpt>
      <trkpt lat="47.41097" lon="6.49728">
        <ele>370.4</ele>
        <time>2013-02-19T14:40:24Z</time>
      </trkpt>
      <trkpt lat="47.41102" lon="6.49722">
        <ele>369.9</ele>
        <time>2013-02-19T14:40:29Z</time>
      </trkpt>
      <trkpt lat="47.41107" lon="6.49715">
        <ele>370.8</ele>
        <time>2013-02-19T14:40:34Z</time>
      </trkpt>
      <trkpt lat="47.41112" lon="6.49708">
        <ele>371.1</ele>
        <time>2013-02-19T14:40:39Z</time>
      </trkpt>
      <trkpt lat="47.41117" lon="6.49705">
        <ele>371.5</ele>
        <time>2013-02-19T14:40:44Z</time>
      </trkpt>
      <trkpt lat="47.41122" lon="6.49703">
        <ele>372.5</ele>
        <time>2013-02-19T14:40:49Z</time>
      </trkpt>
      <trkpt lat="47.41127" lon="6.49698">
        <ele>372.8</ele>
        <time>2013-02-19T14:40:54Z</time>
      </trkpt>
      <trkpt lat="47.41132" lon="6.49693">
        <ele>372.4</ele>
        <time>2013-02-19T14:40:59Z</time>
      </trkpt>
      <trkpt lat="47.41137" lon="6.49688">
        <ele>373.5</ele>
        <time>2013-02-19T14:41:04Z</time>
      </trkpt>
      <trkpt lat="47.4114" lon="6.49682">
        <ele>372.8</ele>
        <time>2013-02-19T14:41:09Z</time>
      </trkpt>
      <trkpt lat="47.41145" lon="6.49673">
        <ele>373.8</ele>
        <time>2013-02-19T14:41:14Z</time>
      </trkpt>
      <trkpt lat="47.4115" lon="6.49668">
        <ele>373.9</ele>
        <time>2013-02-19T14:41:19Z</time>
      </trkpt>
      <trkpt lat="47.41155" lon="6.49663">
        <ele>373.9</ele>
        <time>2013-02-19T14:41:24Z</time>
      </trkpt>
      <trkpt lat="47.41158" lon="6.4966">
        <ele>374.4</ele>
        <time>2013-02-19T14:41:29Z</time>
      </trkpt>
      <trkpt lat="47.41165" lon="6.49653">
        <ele>375.1</ele>
        <time>2013-02-19T14:41:34Z</time>
      </trkpt>
      <trkpt lat="47.41168" lon="6.4965">
        <ele>375.2</ele>
        <time>2013-02-19T14:41:39Z</time>
      </trkpt>
      <trkpt lat="47.41175" lon="6.49645">
        <ele>375.8</ele>
        <time>2013-02-19T14:41:44Z</time>
      </trkpt>
      <trkpt lat="47.4118" lon="6.4964">
        <ele>375.8</ele>
        <time>2013-02-19T14:41:49Z</time>
      </trkpt>
      <trkpt lat="47.41185" lon="6.49637">
        <ele>377</ele>
        <time>2013-02-19T14:41:54Z</time>
      </trkpt>
      <trkpt lat="47.41192" lon="6.49633">
        <ele>377.4</ele>
        <time>2013-02-19T14:41:59Z</time>
      </trkpt>
      <trkpt lat="47.41197" lon="6.49628">
        <ele>377.9</ele>
        <time>2013-02-19T14:42:04Z</time>
      </trkpt>
      <trkpt lat="47.41202" lon="6.49625">
        <ele>378.8</ele>
        <time>2013-02-19T14:42:09Z</time>
      </trkpt>
      <trkpt lat="47.41207" lon="6.49618">
        <ele>379.5</ele>
        <time>2013-02-19T14:42:14Z</time>
      </trkpt>
      <trkpt lat="47.41213" lon="6.49618">
        <ele>380.7</ele>
        <time>2013-02-19T14:42:19Z</time>
      </trkpt>
      <trkpt lat="47.4122" lon="6.4962">
        <ele>381.5</ele>
        <time>2013-02-19T14:42:24Z</time>
      </trkpt>
      <trkpt lat="47.41225" lon="6.49628">
        <ele>382.2</ele>
        <time>2013-02-19T14:42:29Z</time>
      </trkpt>
      <trkpt lat="47.41228" lon="6.49638">
        <ele>383</ele>
        <time>2013-02-19T14:42:34Z</time>
      </trkpt>
      <trkpt lat="47.4123" lon="6.4965">
        <ele>382.9</ele>
        <time>2013-02-19T14:42:39Z</time>
      </trkpt>
      <trkpt lat="47.41232" lon="6.49658">
        <ele>382.4</ele>
        <time>2013-02-19T14:42:44Z</time>
      </trkpt>
      <trkpt lat="47.41233" lon="6.49667">
        <ele>381.9</ele>
        <time>2013-02-19T14:42:49Z</time>
      </trkpt>
      <trkpt lat="47.41237" lon="6.49677">
        <ele>383.1</ele>
        <time>2013-02-19T14:42:54Z</time>
      </trkpt>
      <trkpt lat="47.41238" lon="6.49687">
        <ele>383.1</ele>
        <time>2013-02-19T14:42:59Z</time>
      </trkpt>
      <trkpt lat="47.41243" lon="6.49697">
        <ele>383.2</ele>
        <time>2013-02-19T14:43:04Z</time>
      </trkpt>
      <trkpt lat="47.41245" lon="6.49705">
        <ele>383.4</ele>
        <time>2013-02-19T14:43:09Z</time>
      </trkpt>
      <trkpt lat="47.41248" lon="6.49713">
        <ele>383.4</ele>
        <time>2013-02-19T14:43:14Z</time>
      </trkpt>
      <trkpt lat="47.41252" lon="6.49722">
        <ele>383.6</ele>
        <time>2013-02-19T14:43:19Z</time>
      </trkpt>
      <trkpt lat="47.41255" lon="6.4973">
        <ele>383.3</ele>
        <time>2013-02-19T14:43:24Z</time>
      </trkpt>
      <trkpt lat="47.41257" lon="6.49738">
        <ele>383.6</ele>
        <time>2013-02-19T14:43:29Z</time>
      </trkpt>
      <trkpt lat="47.4126" lon="6.49748">
        <ele>383.9</ele>
        <time>2013-02-19T14:43:34Z</time>
      </trkpt>
      <trkpt lat="47.4126" lon="6.49755">
        <ele>384.1</ele>
        <time>2013-02-19T14:43:39Z</time>
      </trkpt>
      <trkpt lat="47.41262" lon="6.49765">
        <ele>384.6</ele>
        <time>2013-02-19T14:43:44Z</time>
      </trkpt>
      <trkpt lat="47.41263" lon="6.49775">
        <ele>384.4</ele>
        <time>2013-02-19T14:43:49Z</time>
      </trkpt>
      <trkpt lat="47.41265" lon="6.49783">
        <ele>384.7</ele>
        <time>2013-02-19T14:43:54Z</time>
      </trkpt>
      <trkpt lat="47.41268" lon="6.49793">
        <ele>384.9</ele>
        <time>2013-02-19T14:43:59Z</time>
      </trkpt>
      <trkpt lat="47.4127" lon="6.49802">
        <ele>384.9</ele>
        <time>2013-02-19T14:44:04Z</time>
      </trkpt>
      <trkpt lat="47.41272" lon="6.4981">
        <ele>384.4</ele>
        <time>2013-02-19T14:44:09Z</time>
      </trkpt>
      <trkpt lat="47.41347" lon="6.49853">
        <ele>384.8</ele>
        <time>2013-02-19T14:44:15Z</time>
      </trkpt>
      <trkpt lat="47.41283" lon="6.49828">
        <ele>384.4</ele>
        <time>2013-02-19T14:44:20Z</time>
      </trkpt>
      <trkpt lat="47.41282" lon="6.49838">
        <ele>384.7</ele>
        <time>2013-02-19T14:44:25Z</time>
      </trkpt>
      <trkpt lat="47.41282" lon="6.4985">
        <ele>385.1</ele>
        <time>2013-02-19T14:44:30Z</time>
      </trkpt>
      <trkpt lat="47.41283" lon="6.49862">
        <ele>385</ele>
        <time>2013-02-19T14:44:35Z</time>
      </trkpt>
      <trkpt lat="47.41287" lon="6.49868">
        <ele>385.1</ele>
        <time>2013-02-19T14:44:40Z</time>
      </trkpt>
      <trkpt lat="47.41288" lon="6.49878">
        <ele>383.5</ele>
        <time>2013-02-19T14:44:45Z</time>
      </trkpt>
      <trkpt lat="47.41293" lon="6.49883">
        <ele>385.8</ele>
        <time>2013-02-19T14:44:50Z</time>
      </trkpt>
      <trkpt lat="47.41295" lon="6.49892">
        <ele>384.5</ele>
        <time>2013-02-19T14:44:55Z</time>
      </trkpt>
      <trkpt lat="47.413" lon="6.499">
        <ele>384.9</ele>
        <time>2013-02-19T14:45:00Z</time>
      </trkpt>
      <trkpt lat="47.41303" lon="6.4991">
        <ele>383.6</ele>
        <time>2013-02-19T14:45:05Z</time>
      </trkpt>
      <trkpt lat="47.41308" lon="6.4992">
        <ele>384.4</ele>
        <time>2013-02-19T14:45:10Z</time>
      </trkpt>
      <trkpt lat="47.41313" lon="6.49925">
        <ele>383.9</ele>
        <time>2013-02-19T14:45:15Z</time>
      </trkpt>
      <trkpt lat="47.41317" lon="6.49932">
        <ele>384</ele>
        <time>2013-02-19T14:45:20Z</time>
      </trkpt>
      <trkpt lat="47.41322" lon="6.4994">
        <ele>384.1</ele>
        <time>2013-02-19T14:45:25Z</time>
      </trkpt>
      <trkpt lat="47.41325" lon="6.49947">
        <ele>383.9</ele>
        <time>2013-02-19T14:45:30Z</time>
      </trkpt>
      <trkpt lat="47.41327" lon="6.49953">
        <ele>384.2</ele>
        <time>2013-02-19T14:45:35Z</time>
      </trkpt>
      <trkpt lat="47.4133" lon="6.4996">
        <ele>384.2</ele>
        <time>2013-02-19T14:45:40Z</time>
      </trkpt>
      <trkpt lat="47.41332" lon="6.49967">
        <ele>384</ele>
        <time>2013-02-19T14:45:45Z</time>
      </trkpt>
      <trkpt lat="47.41337" lon="6.49973">
        <ele>385</ele>
        <time>2013-02-19T14:45:50Z</time>
      </trkpt>
      <trkpt lat="47.4134" lon="6.4998">
        <ele>384.7</ele>
        <time>2013-02-19T14:45:55Z</time>
      </trkpt>
      <trkpt lat="47.41345" lon="6.49988">
        <ele>385.2</ele>
        <time>2013-02-19T14:46:00Z</time>
      </trkpt>
      <trkpt lat="47.41348" lon="6.49995">
        <ele>385.8</ele>
        <time>2013-02-19T14:46:05Z</time>
      </trkpt>
      <trkpt lat="47.4135" lon="6.50002">
        <ele>385.8</ele>
        <time>2013-02-19T14:46:10Z</time>
      </trkpt>
      <trkpt lat="47.41353" lon="6.50008">
        <ele>386.4</ele>
        <time>2013-02-19T14:46:15Z</time>
      </trkpt>
      <trkpt lat="47.41355" lon="6.50012">
        <ele>386.5</ele>
        <time>2013-02-19T14:46:20Z</time>
      </trkpt>
      <trkpt lat="47.4136" lon="6.50017">
        <ele>387.1</ele>
        <time>2013-02-19T14:46:25Z</time>
      </trkpt>
      <trkpt lat="47.41363" lon="6.50022">
        <ele>387.5</ele>
        <time>2013-02-19T14:46:30Z</time>
      </trkpt>
      <trkpt lat="47.41367" lon="6.50027">
        <ele>387.5</ele>
        <time>2013-02-19T14:46:35Z</time>
      </trkpt>
      <trkpt lat="47.41372" lon="6.5003">
        <ele>388.4</ele>
        <time>2013-02-19T14:46:40Z</time>
      </trkpt>
      <trkpt lat="47.41377" lon="6.50032">
        <ele>388.2</ele>
        <time>2013-02-19T14:46:45Z</time>
      </trkpt>
      <trkpt lat="47.4138" lon="6.50033">
        <ele>388.6</ele>
        <time>2013-02-19T14:46:50Z</time>
      </trkpt>
      <trkpt lat="47.41385" lon="6.50033">
        <ele>389.6</ele>
        <time>2013-02-19T14:46:55Z</time>
      </trkpt>
      <trkpt lat="47.4139" lon="6.50032">
        <ele>390</ele>
        <time>2013-02-19T14:47:00Z</time>
      </trkpt>
      <trkpt lat="47.41395" lon="6.50028">
        <ele>390.4</ele>
        <time>2013-02-19T14:47:05Z</time>
      </trkpt>
      <trkpt lat="47.41398" lon="6.50025">
        <ele>391</ele>
        <time>2013-02-19T14:47:10Z</time>
      </trkpt>
      <trkpt lat="47.41403" lon="6.5002">
        <ele>391.8</ele>
        <time>2013-02-19T14:47:15Z</time>
      </trkpt>
      <trkpt lat="47.41407" lon="6.50015">
        <ele>392.3</ele>
        <time>2013-02-19T14:47:20Z</time>
      </trkpt>
      <trkpt lat="47.4141" lon="6.50007">
        <ele>392.9</ele>
        <time>2013-02-19T14:47:25Z</time>
      </trkpt>
      <trkpt lat="47.41413" lon="6.5">
        <ele>393.2</ele>
        <time>2013-02-19T14:47:30Z</time>
      </trkpt>
      <trkpt lat="47.41417" lon="6.49992">
        <ele>393.1</ele>
        <time>2013-02-19T14:47:35Z</time>
      </trkpt>
      <trkpt lat="47.4142" lon="6.49985">
        <ele>394.3</ele>
        <time>2013-02-19T14:47:40Z</time>
      </trkpt>
      <trkpt lat="47.41425" lon="6.4998">
        <ele>394.6</ele>
        <time>2013-02-19T14:47:45Z</time>
      </trkpt>
      <trkpt lat="47.41428" lon="6.49975">
        <ele>394.9</ele>
        <time>2013-02-19T14:47:50Z</time>
      </trkpt>
      <trkpt lat="47.41432" lon="6.49972">
        <ele>395.3</ele>
        <time>2013-02-19T14:47:55Z</time>
      </trkpt>
      <trkpt lat="47.41437" lon="6.49968">
        <ele>395.7</ele>
        <time>2013-02-19T14:48:00Z</time>
      </trkpt>
      <trkpt lat="47.41442" lon="6.49965">
        <ele>396.2</ele>
        <time>2013-02-19T14:48:05Z</time>
      </trkpt>
      <trkpt lat="47.41445" lon="6.49963">
        <ele>396.5</ele>
        <time>2013-02-19T14:48:10Z</time>
      </trkpt>
      <trkpt lat="47.41445" lon="6.49963">
        <ele>397.6</ele>
        <time>2013-02-19T14:48:15Z</time>
      </trkpt>
      <trkpt lat="47.41447" lon="6.49967">
        <ele>400.2</ele>
        <time>2013-02-19T14:49:46Z</time>
      </trkpt>
      <trkpt lat="47.41447" lon="6.49967">
        <ele>400.2</ele>
        <time>2013-02-19T14:49:51Z</time>
      </trkpt>
      <trkpt lat="47.41447" lon="6.49965">
        <ele>396.9</ele>
        <time>2013-02-19T14:50:06Z</time>
      </trkpt>
      <trkpt lat="47.41447" lon="6.49968">
        <ele>397.5</ele>
        <time>2013-02-19T14:50:11Z</time>
      </trkpt>
      <trkpt lat="47.41448" lon="6.4997">
        <ele>397.6</ele>
        <time>2013-02-19T14:50:16Z</time>
      </trkpt>
      <trkpt lat="47.41453" lon="6.49972">
        <ele>396.9</ele>
        <time>2013-02-19T14:50:21Z</time>
      </trkpt>
      <trkpt lat="47.41457" lon="6.49973">
        <ele>397</ele>
        <time>2013-02-19T14:50:26Z</time>
      </trkpt>
      <trkpt lat="47.41462" lon="6.49972">
        <ele>397.1</ele>
        <time>2013-02-19T14:50:31Z</time>
      </trkpt>
      <trkpt lat="47.41463" lon="6.49972">
        <ele>396.9</ele>
        <time>2013-02-19T14:50:36Z</time>
      </trkpt>
      <trkpt lat="47.41467" lon="6.4997">
        <ele>398.1</ele>
        <time>2013-02-19T14:50:41Z</time>
      </trkpt>
      <trkpt lat="47.4147" lon="6.4997">
        <ele>398.3</ele>
        <time>2013-02-19T14:50:46Z</time>
      </trkpt>
      <trkpt lat="47.41475" lon="6.4997">
        <ele>398.3</ele>
        <time>2013-02-19T14:50:51Z</time>
      </trkpt>
      <trkpt lat="47.41478" lon="6.49968">
        <ele>398.6</ele>
        <time>2013-02-19T14:50:56Z</time>
      </trkpt>
      <trkpt lat="47.41483" lon="6.49965">
        <ele>398.9</ele>
        <time>2013-02-19T14:51:06Z</time>
      </trkpt>
      <trkpt lat="47.41487" lon="6.49965">
        <ele>398.7</ele>
        <time>2013-02-19T14:51:11Z</time>
      </trkpt>
      <trkpt lat="47.4149" lon="6.4996">
        <ele>399.2</ele>
        <time>2013-02-19T14:51:16Z</time>
      </trkpt>
      <trkpt lat="47.41492" lon="6.49958">
        <ele>399.6</ele>
        <time>2013-02-19T14:51:21Z</time>
      </trkpt>
      <trkpt lat="47.41495" lon="6.49957">
        <ele>400.2</ele>
        <time>2013-02-19T14:51:26Z</time>
      </trkpt>
      <trkpt lat="47.41497" lon="6.49957">
        <ele>400</ele>
        <time>2013-02-19T14:51:31Z</time>
      </trkpt>
      <trkpt lat="47.41502" lon="6.4995">
        <ele>401.1</ele>
        <time>2013-02-19T14:51:41Z</time>
      </trkpt>
      <trkpt lat="47.41505" lon="6.49948">
        <ele>401</ele>
        <time>2013-02-19T14:51:46Z</time>
      </trkpt>
      <trkpt lat="47.41508" lon="6.49943">
        <ele>401.3</ele>
        <time>2013-02-19T14:51:51Z</time>
      </trkpt>
      <trkpt lat="47.41512" lon="6.49942">
        <ele>401.3</ele>
        <time>2013-02-19T14:51:56Z</time>
      </trkpt>
      <trkpt lat="47.41515" lon="6.49942">
        <ele>401.9</ele>
        <time>2013-02-19T14:52:01Z</time>
      </trkpt>
      <trkpt lat="47.4152" lon="6.49938">
        <ele>402</ele>
        <time>2013-02-19T14:52:06Z</time>
      </trkpt>
      <trkpt lat="47.41523" lon="6.49935">
        <ele>402.1</ele>
        <time>2013-02-19T14:52:11Z</time>
      </trkpt>
      <trkpt lat="47.41525" lon="6.49933">
        <ele>402.2</ele>
        <time>2013-02-19T14:52:16Z</time>
      </trkpt>
      <trkpt lat="47.41528" lon="6.49932">
        <ele>402.4</ele>
        <time>2013-02-19T14:52:21Z</time>
      </trkpt>
      <trkpt lat="47.41532" lon="6.49928">
        <ele>402.7</ele>
        <time>2013-02-19T14:52:26Z</time>
      </trkpt>
      <trkpt lat="47.41535" lon="6.49927">
        <ele>402.7</ele>
        <time>2013-02-19T14:52:31Z</time>
      </trkpt>
      <trkpt lat="47.41538" lon="6.49925">
        <ele>403</ele>
        <time>2013-02-19T14:52:36Z</time>
      </trkpt>
      <trkpt lat="47.41542" lon="6.49922">
        <ele>403.8</ele>
        <time>2013-02-19T14:52:41Z</time>
      </trkpt>
      <trkpt lat="47.41545" lon="6.49918">
        <ele>403.4</ele>
        <time>2013-02-19T14:52:46Z</time>
      </trkpt>
      <trkpt lat="47.41548" lon="6.49917">
        <ele>403.8</ele>
        <time>2013-02-19T14:52:51Z</time>
      </trkpt>
      <trkpt lat="47.41552" lon="6.49915">
        <ele>403.7</ele>
        <time>2013-02-19T14:52:56Z</time>
      </trkpt>
      <trkpt lat="47.41557" lon="6.49915">
        <ele>403.6</ele>
        <time>2013-02-19T14:53:01Z</time>
      </trkpt>
      <trkpt lat="47.41558" lon="6.49912">
        <ele>403.5</ele>
        <time>2013-02-19T14:53:06Z</time>
      </trkpt>
      <trkpt lat="47.41565" lon="6.4991">
        <ele>403.3</ele>
        <time>2013-02-19T14:53:11Z</time>
      </trkpt>
      <trkpt lat="47.41568" lon="6.49908">
        <ele>403.3</ele>
        <time>2013-02-19T14:53:16Z</time>
      </trkpt>
      <trkpt lat="47.41582" lon="6.49893">
        <ele>404</ele>
        <time>2013-02-19T14:53:36Z</time>
      </trkpt>
      <trkpt lat="47.41583" lon="6.49888">
        <ele>403.3</ele>
        <time>2013-02-19T14:53:41Z</time>
      </trkpt>
      <trkpt lat="47.41587" lon="6.49885">
        <ele>404</ele>
        <time>2013-02-19T14:53:46Z</time>
      </trkpt>
      <trkpt lat="47.4159" lon="6.49883">
        <ele>403.9</ele>
        <time>2013-02-19T14:53:51Z</time>
      </trkpt>
      <trkpt lat="47.41593" lon="6.4988">
        <ele>404.5</ele>
        <time>2013-02-19T14:53:56Z</time>
      </trkpt>
      <trkpt lat="47.41597" lon="6.49878">
        <ele>404.4</ele>
        <time>2013-02-19T14:54:01Z</time>
      </trkpt>
      <trkpt lat="47.41602" lon="6.49875">
        <ele>404.3</ele>
        <time>2013-02-19T14:54:06Z</time>
      </trkpt>
      <trkpt lat="47.41605" lon="6.49873">
        <ele>404.6</ele>
        <time>2013-02-19T14:54:11Z</time>
      </trkpt>
      <trkpt lat="47.4161" lon="6.49872">
        <ele>404.5</ele>
        <time>2013-02-19T14:54:16Z</time>
      </trkpt>
      <trkpt lat="47.41613" lon="6.4987">
        <ele>404.9</ele>
        <time>2013-02-19T14:54:21Z</time>
      </trkpt>
      <trkpt lat="47.41617" lon="6.49867">
        <ele>405.2</ele>
        <time>2013-02-19T14:54:26Z</time>
      </trkpt>
      <trkpt lat="47.4162" lon="6.49862">
        <ele>405.4</ele>
        <time>2013-02-19T14:54:31Z</time>
      </trkpt>
      <trkpt lat="47.41622" lon="6.49858">
        <ele>405.6</ele>
        <time>2013-02-19T14:54:36Z</time>
      </trkpt>
      <trkpt lat="47.41625" lon="6.49853">
        <ele>406</ele>
        <time>2013-02-19T14:54:41Z</time>
      </trkpt>
      <trkpt lat="47.41628" lon="6.49848">
        <ele>406.4</ele>
        <time>2013-02-19T14:54:46Z</time>
      </trkpt>
      <trkpt lat="47.41628" lon="6.49843">
        <ele>407.1</ele>
        <time>2013-02-19T14:54:51Z</time>
      </trkpt>
      <trkpt lat="47.4163" lon="6.49838">
        <ele>406.9</ele>
        <time>2013-02-19T14:54:56Z</time>
      </trkpt>
      <trkpt lat="47.41632" lon="6.49835">
        <ele>407.7</ele>
        <time>2013-02-19T14:55:01Z</time>
      </trkpt>
      <trkpt lat="47.41635" lon="6.4983">
        <ele>407.1</ele>
        <time>2013-02-19T14:55:06Z</time>
      </trkpt>
      <trkpt lat="47.41637" lon="6.49825">
        <ele>408.2</ele>
        <time>2013-02-19T14:55:11Z</time>
      </trkpt>
      <trkpt lat="47.4164" lon="6.49822">
        <ele>408.2</ele>
        <time>2013-02-19T14:55:16Z</time>
      </trkpt>
      <trkpt lat="47.41643" lon="6.49817">
        <ele>408.6</ele>
        <time>2013-02-19T14:55:21Z</time>
      </trkpt>
      <trkpt lat="47.41643" lon="6.49813">
        <ele>408.9</ele>
        <time>2013-02-19T14:55:26Z</time>
      </trkpt>
      <trkpt lat="47.41647" lon="6.49808">
        <ele>408.4</ele>
        <time>2013-02-19T14:55:31Z</time>
      </trkpt>
      <trkpt lat="47.4165" lon="6.49802">
        <ele>409.8</ele>
        <time>2013-02-19T14:55:41Z</time>
      </trkpt>
      <trkpt lat="47.41648" lon="6.49795">
        <ele>410.1</ele>
        <time>2013-02-19T14:55:46Z</time>
      </trkpt>
      <trkpt lat="47.4165" lon="6.4979">
        <ele>410</ele>
        <time>2013-02-19T14:55:51Z</time>
      </trkpt>
      <trkpt lat="47.41652" lon="6.49785">
        <ele>411</ele>
        <time>2013-02-19T14:55:56Z</time>
      </trkpt>
      <trkpt lat="47.41652" lon="6.49782">
        <ele>411</ele>
        <time>2013-02-19T14:56:01Z</time>
      </trkpt>
      <trkpt lat="47.41652" lon="6.49775">
        <ele>411.8</ele>
        <time>2013-02-19T14:56:06Z</time>
      </trkpt>
      <trkpt lat="47.41652" lon="6.49765">
        <ele>413.3</ele>
        <time>2013-02-19T14:56:21Z</time>
      </trkpt>
      <trkpt lat="47.41652" lon="6.4976">
        <ele>413.9</ele>
        <time>2013-02-19T14:56:26Z</time>
      </trkpt>
      <trkpt lat="47.41652" lon="6.49755">
        <ele>413.7</ele>
        <time>2013-02-19T14:56:31Z</time>
      </trkpt>
      <trkpt lat="47.41652" lon="6.49745">
        <ele>414.8</ele>
        <time>2013-02-19T14:56:41Z</time>
      </trkpt>
      <trkpt lat="47.41652" lon="6.49742">
        <ele>414.8</ele>
        <time>2013-02-19T14:56:46Z</time>
      </trkpt>
      <trkpt lat="47.41652" lon="6.49735">
        <ele>415.5</ele>
        <time>2013-02-19T14:56:51Z</time>
      </trkpt>
      <trkpt lat="47.41652" lon="6.49732">
        <ele>415.4</ele>
        <time>2013-02-19T14:56:56Z</time>
      </trkpt>
      <trkpt lat="47.41647" lon="6.49727">
        <ele>416.5</ele>
        <time>2013-02-19T14:57:01Z</time>
      </trkpt>
      <trkpt lat="47.41645" lon="6.49722">
        <ele>416.6</ele>
        <time>2013-02-19T14:57:06Z</time>
      </trkpt>
      <trkpt lat="47.41642" lon="6.49708">
        <ele>417.2</ele>
        <time>2013-02-19T14:57:21Z</time>
      </trkpt>
      <trkpt lat="47.41638" lon="6.49703">
        <ele>416.9</ele>
        <time>2013-02-19T14:57:26Z</time>
      </trkpt>
      <trkpt lat="47.41638" lon="6.49697">
        <ele>417.6</ele>
        <time>2013-02-19T14:57:31Z</time>
      </trkpt>
      <trkpt lat="47.41635" lon="6.4969">
        <ele>418.2</ele>
        <time>2013-02-19T14:57:36Z</time>
      </trkpt>
      <trkpt lat="47.41635" lon="6.49687">
        <ele>417.6</ele>
        <time>2013-02-19T14:57:41Z</time>
      </trkpt>
      <trkpt lat="47.41632" lon="6.49682">
        <ele>418.3</ele>
        <time>2013-02-19T14:57:46Z</time>
      </trkpt>
      <trkpt lat="47.4163" lon="6.49677">
        <ele>418.8</ele>
        <time>2013-02-19T14:57:51Z</time>
      </trkpt>
      <trkpt lat="47.41627" lon="6.49672">
        <ele>418.8</ele>
        <time>2013-02-19T14:57:56Z</time>
      </trkpt>
      <trkpt lat="47.41625" lon="6.49668">
        <ele>419.4</ele>
        <time>2013-02-19T14:58:01Z</time>
      </trkpt>
      <trkpt lat="47.41622" lon="6.49665">
        <ele>419.1</ele>
        <time>2013-02-19T14:58:06Z</time>
      </trkpt>
      <trkpt lat="47.4162" lon="6.49662">
        <ele>419.6</ele>
        <time>2013-02-19T14:58:11Z</time>
      </trkpt>
      <trkpt lat="47.41617" lon="6.49655">
        <ele>419.6</ele>
        <time>2013-02-19T14:58:16Z</time>
      </trkpt>
      <trkpt lat="47.41615" lon="6.4965">
        <ele>419.4</ele>
        <time>2013-02-19T14:58:21Z</time>
      </trkpt>
      <trkpt lat="47.41613" lon="6.49645">
        <ele>419.6</ele>
        <time>2013-02-19T14:58:26Z</time>
      </trkpt>
      <trkpt lat="47.41612" lon="6.4964">
        <ele>420</ele>
        <time>2013-02-19T14:58:31Z</time>
      </trkpt>
      <trkpt lat="47.4161" lon="6.49637">
        <ele>419.8</ele>
        <time>2013-02-19T14:58:36Z</time>
      </trkpt>
      <trkpt lat="47.41607" lon="6.49632">
        <ele>420.3</ele>
        <time>2013-02-19T14:58:41Z</time>
      </trkpt>
      <trkpt lat="47.41605" lon="6.49628">
        <ele>420.2</ele>
        <time>2013-02-19T14:58:46Z</time>
      </trkpt>
      <trkpt lat="47.41602" lon="6.49623">
        <ele>419.9</ele>
        <time>2013-02-19T14:58:51Z</time>
      </trkpt>
      <trkpt lat="47.41602" lon="6.49618">
        <ele>420.3</ele>
        <time>2013-02-19T14:58:56Z</time>
      </trkpt>
      <trkpt lat="47.41598" lon="6.49613">
        <ele>420.6</ele>
        <time>2013-02-19T14:59:01Z</time>
      </trkpt>
      <trkpt lat="47.41598" lon="6.49608">
        <ele>420.8</ele>
        <time>2013-02-19T14:59:06Z</time>
      </trkpt>
      <trkpt lat="47.41597" lon="6.49605">
        <ele>420.4</ele>
        <time>2013-02-19T14:59:11Z</time>
      </trkpt>
      <trkpt lat="47.41593" lon="6.49598">
        <ele>421.2</ele>
        <time>2013-02-19T14:59:16Z</time>
      </trkpt>
      <trkpt lat="47.41587" lon="6.49593">
        <ele>420.7</ele>
        <time>2013-02-19T14:59:21Z</time>
      </trkpt>
      <trkpt lat="47.41583" lon="6.49588">
        <ele>420.9</ele>
        <time>2013-02-19T14:59:26Z</time>
      </trkpt>
      <trkpt lat="47.41582" lon="6.49583">
        <ele>421</ele>
        <time>2013-02-19T14:59:31Z</time>
      </trkpt>
      <trkpt lat="47.41582" lon="6.4958">
        <ele>420.4</ele>
        <time>2013-02-19T14:59:36Z</time>
      </trkpt>
      <trkpt lat="47.41582" lon="6.49575">
        <ele>421</ele>
        <time>2013-02-19T15:00:06Z</time>
      </trkpt>
      <trkpt lat="47.4158" lon="6.49573">
        <ele>421</ele>
        <time>2013-02-19T15:00:11Z</time>
      </trkpt>
      <trkpt lat="47.41578" lon="6.49572">
        <ele>421.6</ele>
        <time>2013-02-19T15:00:46Z</time>
      </trkpt>
      <trkpt lat="47.41573" lon="6.49563">
        <ele>421.2</ele>
        <time>2013-02-19T15:00:51Z</time>
      </trkpt>
      <trkpt lat="47.41577" lon="6.49555">
        <ele>417.7</ele>
        <time>2013-02-19T15:00:56Z</time>
      </trkpt>
      <trkpt lat="47.41568" lon="6.49547">
        <ele>421.8</ele>
        <time>2013-02-19T15:01:01Z</time>
      </trkpt>
      <trkpt lat="47.41565" lon="6.4954">
        <ele>423.7</ele>
        <time>2013-02-19T15:01:06Z</time>
      </trkpt>
      <trkpt lat="47.41562" lon="6.49535">
        <ele>422.4</ele>
        <time>2013-02-19T15:01:11Z</time>
      </trkpt>
      <trkpt lat="47.41558" lon="6.49525">
        <ele>420.8</ele>
        <time>2013-02-19T15:01:16Z</time>
      </trkpt>
      <trkpt lat="47.41558" lon="6.49518">
        <ele>421.6</ele>
        <time>2013-02-19T15:01:21Z</time>
      </trkpt>
      <trkpt lat="47.41555" lon="6.49508">
        <ele>421.6</ele>
        <time>2013-02-19T15:01:26Z</time>
      </trkpt>
      <trkpt lat="47.41553" lon="6.49503">
        <ele>421.4</ele>
        <time>2013-02-19T15:01:31Z</time>
      </trkpt>
      <trkpt lat="47.4155" lon="6.49493">
        <ele>420.3</ele>
        <time>2013-02-19T15:01:36Z</time>
      </trkpt>
      <trkpt lat="47.41548" lon="6.49483">
        <ele>420.6</ele>
        <time>2013-02-19T15:01:41Z</time>
      </trkpt>
      <trkpt lat="47.41547" lon="6.4948">
        <ele>420</ele>
        <time>2013-02-19T15:01:46Z</time>
      </trkpt>
      <trkpt lat="47.41547" lon="6.49478">
        <ele>420</ele>
        <time>2013-02-19T15:01:51Z</time>
      </trkpt>
      <trkpt lat="47.41547" lon="6.49467">
        <ele>420.1</ele>
        <time>2013-02-19T15:02:06Z</time>
      </trkpt>
      <trkpt lat="47.41548" lon="6.4946">
        <ele>421.1</ele>
        <time>2013-02-19T15:02:11Z</time>
      </trkpt>
      <trkpt lat="47.4155" lon="6.49458">
        <ele>420.4</ele>
        <time>2013-02-19T15:02:16Z</time>
      </trkpt>
      <trkpt lat="47.41552" lon="6.49453">
        <ele>420.2</ele>
        <time>2013-02-19T15:02:21Z</time>
      </trkpt>
      <trkpt lat="47.41555" lon="6.4945">
        <ele>420.2</ele>
        <time>2013-02-19T15:02:26Z</time>
      </trkpt>
      <trkpt lat="47.41563" lon="6.4944">
        <ele>420.1</ele>
        <time>2013-02-19T15:02:36Z</time>
      </trkpt>
      <trkpt lat="47.41567" lon="6.49435">
        <ele>418.9</ele>
        <time>2013-02-19T15:02:41Z</time>
      </trkpt>
      <trkpt lat="47.4157" lon="6.4943">
        <ele>420.3</ele>
        <time>2013-02-19T15:02:46Z</time>
      </trkpt>
      <trkpt lat="47.4157" lon="6.4943">
        <ele>419.9</ele>
        <time>2013-02-19T15:02:51Z</time>
      </trkpt>
      <trkpt lat="47.41573" lon="6.49427">
        <ele>420.7</ele>
        <time>2013-02-19T15:02:56Z</time>
      </trkpt>
      <trkpt lat="47.41575" lon="6.49423">
        <ele>420.5</ele>
        <time>2013-02-19T15:03:01Z</time>
      </trkpt>
      <trkpt lat="47.41577" lon="6.49423">
        <ele>421.2</ele>
        <time>2013-02-19T15:03:06Z</time>
      </trkpt>
      <trkpt lat="47.41577" lon="6.49423">
        <ele>420.1</ele>
        <time>2013-02-19T15:03:11Z</time>
      </trkpt>
      <trkpt lat="47.41582" lon="6.49418">
        <ele>421.3</ele>
        <time>2013-02-19T15:03:16Z</time>
      </trkpt>
      <trkpt lat="47.41587" lon="6.49413">
        <ele>421</ele>
        <time>2013-02-19T15:03:21Z</time>
      </trkpt>
      <trkpt lat="47.41592" lon="6.4941">
        <ele>420.9</ele>
        <time>2013-02-19T15:03:26Z</time>
      </trkpt>
      <trkpt lat="47.41597" lon="6.49403">
        <ele>420.9</ele>
        <time>2013-02-19T15:03:31Z</time>
      </trkpt>
      <trkpt lat="47.41602" lon="6.494">
        <ele>421.5</ele>
        <time>2013-02-19T15:03:36Z</time>
      </trkpt>
      <trkpt lat="47.41607" lon="6.49393">
        <ele>421.4</ele>
        <time>2013-02-19T15:03:41Z</time>
      </trkpt>
      <trkpt lat="47.41612" lon="6.4939">
        <ele>421.1</ele>
        <time>2013-02-19T15:03:46Z</time>
      </trkpt>
      <trkpt lat="47.41617" lon="6.49385">
        <ele>420.9</ele>
        <time>2013-02-19T15:03:51Z</time>
      </trkpt>
      <trkpt lat="47.41622" lon="6.4938">
        <ele>420.7</ele>
        <time>2013-02-19T15:03:56Z</time>
      </trkpt>
      <trkpt lat="47.41628" lon="6.49377">
        <ele>420.7</ele>
        <time>2013-02-19T15:04:01Z</time>
      </trkpt>
      <trkpt lat="47.41632" lon="6.49372">
        <ele>420.9</ele>
        <time>2013-02-19T15:04:06Z</time>
      </trkpt>
      <trkpt lat="47.41638" lon="6.49367">
        <ele>420.9</ele>
        <time>2013-02-19T15:04:11Z</time>
      </trkpt>
      <trkpt lat="47.41642" lon="6.49362">
        <ele>420.3</ele>
        <time>2013-02-19T15:04:16Z</time>
      </trkpt>
      <trkpt lat="47.41647" lon="6.49357">
        <ele>420.4</ele>
        <time>2013-02-19T15:04:21Z</time>
      </trkpt>
      <trkpt lat="47.41652" lon="6.4935">
        <ele>419.9</ele>
        <time>2013-02-19T15:04:26Z</time>
      </trkpt>
      <trkpt lat="47.41657" lon="6.49348">
        <ele>419.8</ele>
        <time>2013-02-19T15:04:31Z</time>
      </trkpt>
      <trkpt lat="47.41663" lon="6.49342">
        <ele>420.4</ele>
        <time>2013-02-19T15:04:36Z</time>
      </trkpt>
      <trkpt lat="47.41668" lon="6.49338">
        <ele>420.3</ele>
        <time>2013-02-19T15:04:41Z</time>
      </trkpt>
      <trkpt lat="47.41672" lon="6.49333">
        <ele>420.9</ele>
        <time>2013-02-19T15:04:46Z</time>
      </trkpt>
      <trkpt lat="47.41675" lon="6.49327">
        <ele>420.5</ele>
        <time>2013-02-19T15:04:51Z</time>
      </trkpt>
      <trkpt lat="47.4168" lon="6.49322">
        <ele>421.6</ele>
        <time>2013-02-19T15:04:56Z</time>
      </trkpt>
      <trkpt lat="47.41683" lon="6.49317">
        <ele>421.5</ele>
        <time>2013-02-19T15:05:01Z</time>
      </trkpt>
      <trkpt lat="47.4169" lon="6.49315">
        <ele>422.1</ele>
        <time>2013-02-19T15:05:06Z</time>
      </trkpt>
      <trkpt lat="47.41695" lon="6.4931">
        <ele>422.1</ele>
        <time>2013-02-19T15:05:11Z</time>
      </trkpt>
      <trkpt lat="47.41698" lon="6.4931">
        <ele>422.7</ele>
        <time>2013-02-19T15:05:16Z</time>
      </trkpt>
      <trkpt lat="47.417" lon="6.4931">
        <ele>422.7</ele>
        <time>2013-02-19T15:05:21Z</time>
      </trkpt>
      <trkpt lat="47.41702" lon="6.49305">
        <ele>423.1</ele>
        <time>2013-02-19T15:05:26Z</time>
      </trkpt>
      <trkpt lat="47.41707" lon="6.49303">
        <ele>423.5</ele>
        <time>2013-02-19T15:05:31Z</time>
      </trkpt>
      <trkpt lat="47.41712" lon="6.49298">
        <ele>424.3</ele>
        <time>2013-02-19T15:05:36Z</time>
      </trkpt>
      <trkpt lat="47.41718" lon="6.49293">
        <ele>424.2</ele>
        <time>2013-02-19T15:05:41Z</time>
      </trkpt>
      <trkpt lat="47.41723" lon="6.4929">
        <ele>425.2</ele>
        <time>2013-02-19T15:05:46Z</time>
      </trkpt>
      <trkpt lat="47.41728" lon="6.49287">
        <ele>425.4</ele>
        <time>2013-02-19T15:05:51Z</time>
      </trkpt>
      <trkpt lat="47.41733" lon="6.49282">
        <ele>425.8</ele>
        <time>2013-02-19T15:05:56Z</time>
      </trkpt>
      <trkpt lat="47.4174" lon="6.49277">
        <ele>426</ele>
        <time>2013-02-19T15:06:01Z</time>
      </trkpt>
      <trkpt lat="47.41745" lon="6.49272">
        <ele>426.5</ele>
        <time>2013-02-19T15:06:06Z</time>
      </trkpt>
      <trkpt lat="47.41748" lon="6.49265">
        <ele>426.5</ele>
        <time>2013-02-19T15:06:11Z</time>
      </trkpt>
      <trkpt lat="47.41753" lon="6.4926">
        <ele>426.5</ele>
        <time>2013-02-19T15:06:16Z</time>
      </trkpt>
      <trkpt lat="47.41757" lon="6.49253">
        <ele>426.8</ele>
        <time>2013-02-19T15:06:21Z</time>
      </trkpt>
      <trkpt lat="47.41762" lon="6.49248">
        <ele>426.5</ele>
        <time>2013-02-19T15:06:26Z</time>
      </trkpt>
      <trkpt lat="47.41767" lon="6.49242">
        <ele>426.6</ele>
        <time>2013-02-19T15:06:31Z</time>
      </trkpt>
      <trkpt lat="47.41772" lon="6.49237">
        <ele>426.4</ele>
        <time>2013-02-19T15:06:36Z</time>
      </trkpt>
      <trkpt lat="47.41775" lon="6.4923">
        <ele>426.3</ele>
        <time>2013-02-19T15:06:41Z</time>
      </trkpt>
      <trkpt lat="47.41782" lon="6.49227">
        <ele>426.7</ele>
        <time>2013-02-19T15:06:46Z</time>
      </trkpt>
      <trkpt lat="47.41787" lon="6.49222">
        <ele>427.3</ele>
        <time>2013-02-19T15:06:51Z</time>
      </trkpt>
      <trkpt lat="47.41793" lon="6.49217">
        <ele>427.5</ele>
        <time>2013-02-19T15:06:56Z</time>
      </trkpt>
      <trkpt lat="47.41798" lon="6.49213">
        <ele>427.9</ele>
        <time>2013-02-19T15:07:01Z</time>
      </trkpt>
      <trkpt lat="47.41802" lon="6.49213">
        <ele>427.8</ele>
        <time>2013-02-19T15:07:06Z</time>
      </trkpt>
      <trkpt lat="47.41803" lon="6.49213">
        <ele>427.7</ele>
        <time>2013-02-19T15:07:11Z</time>
      </trkpt>
      <trkpt lat="47.41807" lon="6.49215">
        <ele>427.7</ele>
        <time>2013-02-19T15:07:16Z</time>
      </trkpt>
      <trkpt lat="47.41812" lon="6.49222">
        <ele>428.7</ele>
        <time>2013-02-19T15:07:21Z</time>
      </trkpt>
      <trkpt lat="47.41815" lon="6.49227">
        <ele>428.8</ele>
        <time>2013-02-19T15:07:26Z</time>
      </trkpt>
      <trkpt lat="47.41813" lon="6.49237">
        <ele>428.9</ele>
        <time>2013-02-19T15:07:41Z</time>
      </trkpt>
      <trkpt lat="47.41808" lon="6.49247">
        <ele>428.4</ele>
        <time>2013-02-19T15:07:46Z</time>
      </trkpt>
      <trkpt lat="47.41807" lon="6.49255">
        <ele>428.6</ele>
        <time>2013-02-19T15:07:51Z</time>
      </trkpt>
      <trkpt lat="47.41805" lon="6.49263">
        <ele>428.4</ele>
        <time>2013-02-19T15:07:56Z</time>
      </trkpt>
      <trkpt lat="47.41803" lon="6.49265">
        <ele>428.4</ele>
        <time>2013-02-19T15:08:01Z</time>
      </trkpt>
      <trkpt lat="47.41802" lon="6.49268">
        <ele>428.6</ele>
        <time>2013-02-19T15:08:06Z</time>
      </trkpt>
      <trkpt lat="47.418" lon="6.49277">
        <ele>428.3</ele>
        <time>2013-02-19T15:08:11Z</time>
      </trkpt>
      <trkpt lat="47.41797" lon="6.49282">
        <ele>428.7</ele>
        <time>2013-02-19T15:08:16Z</time>
      </trkpt>
      <trkpt lat="47.41797" lon="6.49292">
        <ele>428.7</ele>
        <time>2013-02-19T15:08:21Z</time>
      </trkpt>
      <trkpt lat="47.41793" lon="6.49303">
        <ele>428.6</ele>
        <time>2013-02-19T15:08:26Z</time>
      </trkpt>
      <trkpt lat="47.4179" lon="6.49315">
        <ele>429.1</ele>
        <time>2013-02-19T15:08:31Z</time>
      </trkpt>
      <trkpt lat="47.41788" lon="6.49327">
        <ele>428.7</ele>
        <time>2013-02-19T15:08:36Z</time>
      </trkpt>
      <trkpt lat="47.41788" lon="6.49337">
        <ele>429</ele>
        <time>2013-02-19T15:08:41Z</time>
      </trkpt>
      <trkpt lat="47.41787" lon="6.49345">
        <ele>429</ele>
        <time>2013-02-19T15:08:46Z</time>
      </trkpt>
      <trkpt lat="47.41785" lon="6.49355">
        <ele>429.6</ele>
        <time>2013-02-19T15:08:51Z</time>
      </trkpt>
      <trkpt lat="47.41782" lon="6.49363">
        <ele>429</ele>
        <time>2013-02-19T15:08:56Z</time>
      </trkpt>
      <trkpt lat="47.41782" lon="6.49372">
        <ele>428.2</ele>
        <time>2013-02-19T15:09:01Z</time>
      </trkpt>
      <trkpt lat="47.4178" lon="6.4938">
        <ele>428.6</ele>
        <time>2013-02-19T15:09:06Z</time>
      </trkpt>
      <trkpt lat="47.41777" lon="6.49388">
        <ele>428.3</ele>
        <time>2013-02-19T15:09:11Z</time>
      </trkpt>
      <trkpt lat="47.41773" lon="6.494">
        <ele>428.2</ele>
        <time>2013-02-19T15:09:16Z</time>
      </trkpt>
      <trkpt lat="47.4177" lon="6.4941">
        <ele>427.6</ele>
        <time>2013-02-19T15:09:21Z</time>
      </trkpt>
      <trkpt lat="47.41767" lon="6.49418">
        <ele>427.3</ele>
        <time>2013-02-19T15:09:26Z</time>
      </trkpt>
      <trkpt lat="47.41765" lon="6.49425">
        <ele>427.6</ele>
        <time>2013-02-19T15:09:31Z</time>
      </trkpt>
      <trkpt lat="47.41763" lon="6.49435">
        <ele>427.1</ele>
        <time>2013-02-19T15:09:36Z</time>
      </trkpt>
      <trkpt lat="47.41763" lon="6.49443">
        <ele>427</ele>
        <time>2013-02-19T15:09:41Z</time>
      </trkpt>
      <trkpt lat="47.41762" lon="6.49452">
        <ele>427</ele>
        <time>2013-02-19T15:09:46Z</time>
      </trkpt>
      <trkpt lat="47.41762" lon="6.4946">
        <ele>426.3</ele>
        <time>2013-02-19T15:09:51Z</time>
      </trkpt>
      <trkpt lat="47.41763" lon="6.4947">
        <ele>426</ele>
        <time>2013-02-19T15:09:56Z</time>
      </trkpt>
      <trkpt lat="47.41763" lon="6.49478">
        <ele>426.3</ele>
        <time>2013-02-19T15:10:01Z</time>
      </trkpt>
      <trkpt lat="47.41763" lon="6.49487">
        <ele>426</ele>
        <time>2013-02-19T15:10:06Z</time>
      </trkpt>
      <trkpt lat="47.41763" lon="6.49497">
        <ele>425.3</ele>
        <time>2013-02-19T15:10:11Z</time>
      </trkpt>
      <trkpt lat="47.41765" lon="6.49507">
        <ele>424.7</ele>
        <time>2013-02-19T15:10:16Z</time>
      </trkpt>
      <trkpt lat="47.41765" lon="6.49513">
        <ele>424.3</ele>
        <time>2013-02-19T15:10:21Z</time>
      </trkpt>
      <trkpt lat="47.41765" lon="6.49523">
        <ele>423.4</ele>
        <time>2013-02-19T15:10:26Z</time>
      </trkpt>
      <trkpt lat="47.41765" lon="6.49532">
        <ele>422.4</ele>
        <time>2013-02-19T15:10:31Z</time>
      </trkpt>
      <trkpt lat="47.41768" lon="6.4954">
        <ele>421.6</ele>
        <time>2013-02-19T15:10:36Z</time>
      </trkpt>
      <trkpt lat="47.41767" lon="6.4955">
        <ele>421.2</ele>
        <time>2013-02-19T15:10:41Z</time>
      </trkpt>
      <trkpt lat="47.41765" lon="6.49562">
        <ele>420.9</ele>
        <time>2013-02-19T15:10:46Z</time>
      </trkpt>
      <trkpt lat="47.41768" lon="6.4957">
        <ele>419.9</ele>
        <time>2013-02-19T15:10:51Z</time>
      </trkpt>
      <trkpt lat="47.41768" lon="6.49577">
        <ele>419.6</ele>
        <time>2013-02-19T15:10:56Z</time>
      </trkpt>
      <trkpt lat="47.41768" lon="6.49585">
        <ele>419</ele>
        <time>2013-02-19T15:11:01Z</time>
      </trkpt>
      <trkpt lat="47.4177" lon="6.49593">
        <ele>418.1</ele>
        <time>2013-02-19T15:11:06Z</time>
      </trkpt>
      <trkpt lat="47.4177" lon="6.496">
        <ele>418.5</ele>
        <time>2013-02-19T15:11:11Z</time>
      </trkpt>
      <trkpt lat="47.41773" lon="6.49608">
        <ele>417.7</ele>
        <time>2013-02-19T15:11:16Z</time>
      </trkpt>
      <trkpt lat="47.41778" lon="6.49615">
        <ele>416.3</ele>
        <time>2013-02-19T15:11:21Z</time>
      </trkpt>
      <trkpt lat="47.4178" lon="6.49623">
        <ele>416.2</ele>
        <time>2013-02-19T15:11:26Z</time>
      </trkpt>
      <trkpt lat="47.41785" lon="6.4963">
        <ele>415.5</ele>
        <time>2013-02-19T15:11:31Z</time>
      </trkpt>
      <trkpt lat="47.41787" lon="6.49638">
        <ele>413.7</ele>
        <time>2013-02-19T15:11:36Z</time>
      </trkpt>
      <trkpt lat="47.4179" lon="6.49647">
        <ele>413.4</ele>
        <time>2013-02-19T15:11:41Z</time>
      </trkpt>
      <trkpt lat="47.41795" lon="6.49653">
        <ele>412.3</ele>
        <time>2013-02-19T15:11:46Z</time>
      </trkpt>
      <trkpt lat="47.41798" lon="6.4966">
        <ele>411.8</ele>
        <time>2013-02-19T15:11:51Z</time>
      </trkpt>
      <trkpt lat="47.418" lon="6.4967">
        <ele>410.8</ele>
        <time>2013-02-19T15:11:56Z</time>
      </trkpt>
      <trkpt lat="47.41802" lon="6.49677">
        <ele>409.8</ele>
        <time>2013-02-19T15:12:01Z</time>
      </trkpt>
      <trkpt lat="47.41805" lon="6.49682">
        <ele>409.6</ele>
        <time>2013-02-19T15:12:06Z</time>
      </trkpt>
      <trkpt lat="47.41807" lon="6.49685">
        <ele>408.7</ele>
        <time>2013-02-19T15:12:11Z</time>
      </trkpt>
      <trkpt lat="47.41808" lon="6.49693">
        <ele>407.9</ele>
        <time>2013-02-19T15:12:16Z</time>
      </trkpt>
      <trkpt lat="47.41812" lon="6.49703">
        <ele>406.3</ele>
        <time>2013-02-19T15:12:26Z</time>
      </trkpt>
      <trkpt lat="47.41813" lon="6.49712">
        <ele>406.2</ele>
        <time>2013-02-19T15:12:31Z</time>
      </trkpt>
      <trkpt lat="47.41815" lon="6.49715">
        <ele>405.4</ele>
        <time>2013-02-19T15:12:36Z</time>
      </trkpt>
      <trkpt lat="47.41817" lon="6.4972">
        <ele>404.1</ele>
        <time>2013-02-19T15:12:41Z</time>
      </trkpt>
      <trkpt lat="47.41822" lon="6.4973">
        <ele>403.8</ele>
        <time>2013-02-19T15:12:46Z</time>
      </trkpt>
      <trkpt lat="47.41825" lon="6.49738">
        <ele>403.1</ele>
        <time>2013-02-19T15:12:51Z</time>
      </trkpt>
      <trkpt lat="47.41827" lon="6.49758">
        <ele>401.9</ele>
        <time>2013-02-19T15:12:56Z</time>
      </trkpt>
      <trkpt lat="47.41827" lon="6.49775">
        <ele>401.7</ele>
        <time>2013-02-19T15:13:01Z</time>
      </trkpt>
      <trkpt lat="47.4183" lon="6.49785">
        <ele>401.1</ele>
        <time>2013-02-19T15:13:06Z</time>
      </trkpt>
      <trkpt lat="47.41833" lon="6.49797">
        <ele>400.5</ele>
        <time>2013-02-19T15:13:11Z</time>
      </trkpt>
      <trkpt lat="47.41837" lon="6.49805">
        <ele>399.2</ele>
        <time>2013-02-19T15:13:16Z</time>
      </trkpt>
      <trkpt lat="47.41837" lon="6.49807">
        <ele>398.7</ele>
        <time>2013-02-19T15:13:21Z</time>
      </trkpt>
      <trkpt lat="47.41837" lon="6.49807">
        <ele>399.2</ele>
        <time>2013-02-19T15:13:26Z</time>
      </trkpt>
      <trkpt lat="47.4184" lon="6.4981">
        <ele>399.1</ele>
        <time>2013-02-19T15:13:36Z</time>
      </trkpt>
      <trkpt lat="47.41842" lon="6.4982">
        <ele>398</ele>
        <time>2013-02-19T15:13:41Z</time>
      </trkpt>
      <trkpt lat="47.41843" lon="6.49828">
        <ele>397</ele>
        <time>2013-02-19T15:13:46Z</time>
      </trkpt>
      <trkpt lat="47.41842" lon="6.49837">
        <ele>396.3</ele>
        <time>2013-02-19T15:13:51Z</time>
      </trkpt>
      <trkpt lat="47.41838" lon="6.49847">
        <ele>395</ele>
        <time>2013-02-19T15:13:56Z</time>
      </trkpt>
      <trkpt lat="47.41833" lon="6.49853">
        <ele>395.1</ele>
        <time>2013-02-19T15:14:01Z</time>
      </trkpt>
      <trkpt lat="47.41828" lon="6.49862">
        <ele>394.1</ele>
        <time>2013-02-19T15:14:06Z</time>
      </trkpt>
      <trkpt lat="47.41825" lon="6.49868">
        <ele>392.2</ele>
        <time>2013-02-19T15:14:11Z</time>
      </trkpt>
      <trkpt lat="47.4182" lon="6.49877">
        <ele>391.6</ele>
        <time>2013-02-19T15:14:16Z</time>
      </trkpt>
      <trkpt lat="47.41818" lon="6.49888">
        <ele>391</ele>
        <time>2013-02-19T15:14:21Z</time>
      </trkpt>
      <trkpt lat="47.41813" lon="6.49897">
        <ele>390.7</ele>
        <time>2013-02-19T15:14:26Z</time>
      </trkpt>
      <trkpt lat="47.41812" lon="6.49905">
        <ele>388.7</ele>
        <time>2013-02-19T15:14:31Z</time>
      </trkpt>
      <trkpt lat="47.4181" lon="6.49917">
        <ele>388.1</ele>
        <time>2013-02-19T15:14:36Z</time>
      </trkpt>
      <trkpt lat="47.41808" lon="6.49927">
        <ele>387.8</ele>
        <time>2013-02-19T15:14:41Z</time>
      </trkpt>
      <trkpt lat="47.41807" lon="6.49935">
        <ele>386.7</ele>
        <time>2013-02-19T15:14:46Z</time>
      </trkpt>
      <trkpt lat="47.41807" lon="6.49945">
        <ele>386</ele>
        <time>2013-02-19T15:14:51Z</time>
      </trkpt>
      <trkpt lat="47.41805" lon="6.49953">
        <ele>385.5</ele>
        <time>2013-02-19T15:14:56Z</time>
      </trkpt>
      <trkpt lat="47.41803" lon="6.49962">
        <ele>384.6</ele>
        <time>2013-02-19T15:15:01Z</time>
      </trkpt>
      <trkpt lat="47.41802" lon="6.49972">
        <ele>384</ele>
        <time>2013-02-19T15:15:06Z</time>
      </trkpt>
      <trkpt lat="47.41798" lon="6.4998">
        <ele>383.1</ele>
        <time>2013-02-19T15:15:11Z</time>
      </trkpt>
      <trkpt lat="47.41797" lon="6.4999">
        <ele>383.1</ele>
        <time>2013-02-19T15:15:16Z</time>
      </trkpt>
      <trkpt lat="47.41793" lon="6.5">
        <ele>382.8</ele>
        <time>2013-02-19T15:15:21Z</time>
      </trkpt>
      <trkpt lat="47.41788" lon="6.50008">
        <ele>381.6</ele>
        <time>2013-02-19T15:15:26Z</time>
      </trkpt>
      <trkpt lat="47.41785" lon="6.50017">
        <ele>381.1</ele>
        <time>2013-02-19T15:15:31Z</time>
      </trkpt>
      <trkpt lat="47.41778" lon="6.50025">
        <ele>380.6</ele>
        <time>2013-02-19T15:15:36Z</time>
      </trkpt>
      <trkpt lat="47.41772" lon="6.50033">
        <ele>380.3</ele>
        <time>2013-02-19T15:15:41Z</time>
      </trkpt>
      <trkpt lat="47.41767" lon="6.5004">
        <ele>379.1</ele>
        <time>2013-02-19T15:15:46Z</time>
      </trkpt>
      <trkpt lat="47.41762" lon="6.50043">
        <ele>378.5</ele>
        <time>2013-02-19T15:15:51Z</time>
      </trkpt>
      <trkpt lat="47.41757" lon="6.50048">
        <ele>378.1</ele>
        <time>2013-02-19T15:15:56Z</time>
      </trkpt>
      <trkpt lat="47.41752" lon="6.50053">
        <ele>377.9</ele>
        <time>2013-02-19T15:16:01Z</time>
      </trkpt>
      <trkpt lat="47.41745" lon="6.50062">
        <ele>377.4</ele>
        <time>2013-02-19T15:16:06Z</time>
      </trkpt>
      <trkpt lat="47.4174" lon="6.50068">
        <ele>377.3</ele>
        <time>2013-02-19T15:16:11Z</time>
      </trkpt>
      <trkpt lat="47.41735" lon="6.50077">
        <ele>377.5</ele>
        <time>2013-02-19T15:16:16Z</time>
      </trkpt>
      <trkpt lat="47.41728" lon="6.50085">
        <ele>376.9</ele>
        <time>2013-02-19T15:16:21Z</time>
      </trkpt>
      <trkpt lat="47.41725" lon="6.50093">
        <ele>376.8</ele>
        <time>2013-02-19T15:16:26Z</time>
      </trkpt>
      <trkpt lat="47.4172" lon="6.50103">
        <ele>376.5</ele>
        <time>2013-02-19T15:16:31Z</time>
      </trkpt>
      <trkpt lat="47.41717" lon="6.5011">
        <ele>376.2</ele>
        <time>2013-02-19T15:16:36Z</time>
      </trkpt>
      <trkpt lat="47.41713" lon="6.50118">
        <ele>376.2</ele>
        <time>2013-02-19T15:16:41Z</time>
      </trkpt>
      <trkpt lat="47.41708" lon="6.50127">
        <ele>375.8</ele>
        <time>2013-02-19T15:16:46Z</time>
      </trkpt>
      <trkpt lat="47.41703" lon="6.50133">
        <ele>375.5</ele>
        <time>2013-02-19T15:16:51Z</time>
      </trkpt>
      <trkpt lat="47.41698" lon="6.50143">
        <ele>375.4</ele>
        <time>2013-02-19T15:16:56Z</time>
      </trkpt>
      <trkpt lat="47.41693" lon="6.50148">
        <ele>375.5</ele>
        <time>2013-02-19T15:17:01Z</time>
      </trkpt>
      <trkpt lat="47.41688" lon="6.50155">
        <ele>374.9</ele>
        <time>2013-02-19T15:17:06Z</time>
      </trkpt>
      <trkpt lat="47.41685" lon="6.5016">
        <ele>375.4</ele>
        <time>2013-02-19T15:17:11Z</time>
      </trkpt>
      <trkpt lat="47.41683" lon="6.50163">
        <ele>375.2</ele>
        <time>2013-02-19T15:17:16Z</time>
      </trkpt>
      <trkpt lat="47.4168" lon="6.5017">
        <ele>375</ele>
        <time>2013-02-19T15:17:21Z</time>
      </trkpt>
      <trkpt lat="47.41677" lon="6.50177">
        <ele>374.7</ele>
        <time>2013-02-19T15:17:26Z</time>
      </trkpt>
      <trkpt lat="47.41672" lon="6.50185">
        <ele>374.2</ele>
        <time>2013-02-19T15:17:31Z</time>
      </trkpt>
      <trkpt lat="47.41668" lon="6.50193">
        <ele>374</ele>
        <time>2013-02-19T15:17:36Z</time>
      </trkpt>
      <trkpt lat="47.41663" lon="6.50202">
        <ele>373.7</ele>
        <time>2013-02-19T15:17:41Z</time>
      </trkpt>
      <trkpt lat="47.4166" lon="6.5021">
        <ele>373.5</ele>
        <time>2013-02-19T15:17:46Z</time>
      </trkpt>
      <trkpt lat="47.41657" lon="6.5022">
        <ele>372.8</ele>
        <time>2013-02-19T15:17:51Z</time>
      </trkpt>
      <trkpt lat="47.41652" lon="6.50228">
        <ele>372.9</ele>
        <time>2013-02-19T15:17:56Z</time>
      </trkpt>
      <trkpt lat="47.4165" lon="6.50237">
        <ele>371.8</ele>
        <time>2013-02-19T15:18:01Z</time>
      </trkpt>
      <trkpt lat="47.41645" lon="6.50245">
        <ele>371.7</ele>
        <time>2013-02-19T15:18:06Z</time>
      </trkpt>
      <trkpt lat="47.4164" lon="6.50255">
        <ele>371.6</ele>
        <time>2013-02-19T15:18:11Z</time>
      </trkpt>
      <trkpt lat="47.41637" lon="6.50262">
        <ele>371.1</ele>
        <time>2013-02-19T15:18:16Z</time>
      </trkpt>
      <trkpt lat="47.41632" lon="6.50272">
        <ele>371.2</ele>
        <time>2013-02-19T15:18:21Z</time>
      </trkpt>
      <trkpt lat="47.41627" lon="6.5028">
        <ele>370.1</ele>
        <time>2013-02-19T15:18:26Z</time>
      </trkpt>
      <trkpt lat="47.41623" lon="6.5029">
        <ele>369.8</ele>
        <time>2013-02-19T15:18:31Z</time>
      </trkpt>
      <trkpt lat="47.41618" lon="6.50298">
        <ele>369.8</ele>
        <time>2013-02-19T15:18:36Z</time>
      </trkpt>
      <trkpt lat="47.41613" lon="6.50307">
        <ele>369.4</ele>
        <time>2013-02-19T15:18:41Z</time>
      </trkpt>
      <trkpt lat="47.41608" lon="6.50313">
        <ele>369.6</ele>
        <time>2013-02-19T15:18:46Z</time>
      </trkpt>
      <trkpt lat="47.41603" lon="6.50322">
        <ele>369.1</ele>
        <time>2013-02-19T15:18:51Z</time>
      </trkpt>
      <trkpt lat="47.416" lon="6.5033">
        <ele>369.8</ele>
        <time>2013-02-19T15:18:56Z</time>
      </trkpt>
      <trkpt lat="47.41597" lon="6.50338">
        <ele>369.6</ele>
        <time>2013-02-19T15:19:01Z</time>
      </trkpt>
      <trkpt lat="47.41592" lon="6.5035">
        <ele>369.2</ele>
        <time>2013-02-19T15:19:06Z</time>
      </trkpt>
      <trkpt lat="47.4159" lon="6.50358">
        <ele>369.2</ele>
        <time>2013-02-19T15:19:11Z</time>
      </trkpt>
      <trkpt lat="47.41588" lon="6.50367">
        <ele>369.9</ele>
        <time>2013-02-19T15:19:16Z</time>
      </trkpt>
      <trkpt lat="47.41587" lon="6.50373">
        <ele>369.1</ele>
        <time>2013-02-19T15:19:21Z</time>
      </trkpt>
      <trkpt lat="47.41585" lon="6.50385">
        <ele>369.5</ele>
        <time>2013-02-19T15:19:26Z</time>
      </trkpt>
      <trkpt lat="47.4158" lon="6.50395">
        <ele>369.1</ele>
        <time>2013-02-19T15:19:31Z</time>
      </trkpt>
      <trkpt lat="47.41578" lon="6.50407">
        <ele>369.3</ele>
        <time>2013-02-19T15:19:36Z</time>
      </trkpt>
      <trkpt lat="47.41578" lon="6.50417">
        <ele>368.8</ele>
        <time>2013-02-19T15:19:41Z</time>
      </trkpt>
      <trkpt lat="47.41577" lon="6.50427">
        <ele>368.9</ele>
        <time>2013-02-19T15:19:46Z</time>
      </trkpt>
      <trkpt lat="47.41573" lon="6.50438">
        <ele>368.9</ele>
        <time>2013-02-19T15:19:51Z</time>
      </trkpt>
      <trkpt lat="47.41572" lon="6.50447">
        <ele>368.9</ele>
        <time>2013-02-19T15:19:56Z</time>
      </trkpt>
      <trkpt lat="47.4157" lon="6.50457">
        <ele>369.4</ele>
        <time>2013-02-19T15:20:01Z</time>
      </trkpt>
      <trkpt lat="47.4157" lon="6.50468">
        <ele>370.1</ele>
        <time>2013-02-19T15:20:06Z</time>
      </trkpt>
      <trkpt lat="47.4157" lon="6.50478">
        <ele>370.1</ele>
        <time>2013-02-19T15:20:11Z</time>
      </trkpt>
      <trkpt lat="47.41568" lon="6.50488">
        <ele>370.6</ele>
        <time>2013-02-19T15:20:16Z</time>
      </trkpt>
      <trkpt lat="47.41568" lon="6.505">
        <ele>370.8</ele>
        <time>2013-02-19T15:20:21Z</time>
      </trkpt>
      <trkpt lat="47.4157" lon="6.50508">
        <ele>370.7</ele>
        <time>2013-02-19T15:20:26Z</time>
      </trkpt>
      <trkpt lat="47.4157" lon="6.50518">
        <ele>370.8</ele>
        <time>2013-02-19T15:20:31Z</time>
      </trkpt>
      <trkpt lat="47.4157" lon="6.50528">
        <ele>371.1</ele>
        <time>2013-02-19T15:20:36Z</time>
      </trkpt>
      <trkpt lat="47.4157" lon="6.50538">
        <ele>371.1</ele>
        <time>2013-02-19T15:20:41Z</time>
      </trkpt>
      <trkpt lat="47.41572" lon="6.50547">
        <ele>370.9</ele>
        <time>2013-02-19T15:20:46Z</time>
      </trkpt>
      <trkpt lat="47.41572" lon="6.50558">
        <ele>370.9</ele>
        <time>2013-02-19T15:20:51Z</time>
      </trkpt>
      <trkpt lat="47.41572" lon="6.50567">
        <ele>371.5</ele>
        <time>2013-02-19T15:20:56Z</time>
      </trkpt>
      <trkpt lat="47.41572" lon="6.50578">
        <ele>371.3</ele>
        <time>2013-02-19T15:21:01Z</time>
      </trkpt>
      <trkpt lat="47.41572" lon="6.50588">
        <ele>371.7</ele>
        <time>2013-02-19T15:21:06Z</time>
      </trkpt>
      <trkpt lat="47.41573" lon="6.50598">
        <ele>371.4</ele>
        <time>2013-02-19T15:21:11Z</time>
      </trkpt>
      <trkpt lat="47.41572" lon="6.50608">
        <ele>371.8</ele>
        <time>2013-02-19T15:21:16Z</time>
      </trkpt>
      <trkpt lat="47.41573" lon="6.50617">
        <ele>371.8</ele>
        <time>2013-02-19T15:21:21Z</time>
      </trkpt>
      <trkpt lat="47.41573" lon="6.50628">
        <ele>372.1</ele>
        <time>2013-02-19T15:21:26Z</time>
      </trkpt>
      <trkpt lat="47.41573" lon="6.5064">
        <ele>371.6</ele>
        <time>2013-02-19T15:21:31Z</time>
      </trkpt>
      <trkpt lat="47.41577" lon="6.50648">
        <ele>371.6</ele>
        <time>2013-02-19T15:21:36Z</time>
      </trkpt>
      <trkpt lat="47.41577" lon="6.5066">
        <ele>371.6</ele>
        <time>2013-02-19T15:21:41Z</time>
      </trkpt>
      <trkpt lat="47.4158" lon="6.50668">
        <ele>371.5</ele>
        <time>2013-02-19T15:21:46Z</time>
      </trkpt>
      <trkpt lat="47.41583" lon="6.50678">
        <ele>371.3</ele>
        <time>2013-02-19T15:21:51Z</time>
      </trkpt>
      <trkpt lat="47.41585" lon="6.50688">
        <ele>370.8</ele>
        <time>2013-02-19T15:21:56Z</time>
      </trkpt>
      <trkpt lat="47.41587" lon="6.50698">
        <ele>371.3</ele>
        <time>2013-02-19T15:22:01Z</time>
      </trkpt>
      <trkpt lat="47.4159" lon="6.50707">
        <ele>371.2</ele>
        <time>2013-02-19T15:22:06Z</time>
      </trkpt>
      <trkpt lat="47.41592" lon="6.50715">
        <ele>371.2</ele>
        <time>2013-02-19T15:22:11Z</time>
      </trkpt>
      <trkpt lat="47.41593" lon="6.50725">
        <ele>370.8</ele>
        <time>2013-02-19T15:22:16Z</time>
      </trkpt>
      <trkpt lat="47.41595" lon="6.50735">
        <ele>371.3</ele>
        <time>2013-02-19T15:22:21Z</time>
      </trkpt>
      <trkpt lat="47.416" lon="6.50747">
        <ele>371.2</ele>
        <time>2013-02-19T15:22:26Z</time>
      </trkpt>
      <trkpt lat="47.41603" lon="6.50755">
        <ele>370.7</ele>
        <time>2013-02-19T15:22:31Z</time>
      </trkpt>
      <trkpt lat="47.41607" lon="6.50765">
        <ele>370.9</ele>
        <time>2013-02-19T15:22:36Z</time>
      </trkpt>
      <trkpt lat="47.41608" lon="6.50773">
        <ele>371.3</ele>
        <time>2013-02-19T15:22:41Z</time>
      </trkpt>
      <trkpt lat="47.41612" lon="6.50785">
        <ele>370.9</ele>
        <time>2013-02-19T15:22:46Z</time>
      </trkpt>
      <trkpt lat="47.41613" lon="6.50795">
        <ele>371.3</ele>
        <time>2013-02-19T15:22:51Z</time>
      </trkpt>
      <trkpt lat="47.41617" lon="6.50805">
        <ele>370.9</ele>
        <time>2013-02-19T15:22:56Z</time>
      </trkpt>
      <trkpt lat="47.41618" lon="6.50815">
        <ele>371.2</ele>
        <time>2013-02-19T15:23:01Z</time>
      </trkpt>
      <trkpt lat="47.41622" lon="6.50823">
        <ele>371.3</ele>
        <time>2013-02-19T15:23:06Z</time>
      </trkpt>
      <trkpt lat="47.41625" lon="6.50833">
        <ele>370.9</ele>
        <time>2013-02-19T15:23:11Z</time>
      </trkpt>
      <trkpt lat="47.41628" lon="6.50843">
        <ele>371.1</ele>
        <time>2013-02-19T15:23:16Z</time>
      </trkpt>
      <trkpt lat="47.4163" lon="6.50853">
        <ele>370.7</ele>
        <time>2013-02-19T15:23:21Z</time>
      </trkpt>
      <trkpt lat="47.41632" lon="6.50863">
        <ele>370.9</ele>
        <time>2013-02-19T15:23:26Z</time>
      </trkpt>
      <trkpt lat="47.41635" lon="6.50873">
        <ele>370.9</ele>
        <time>2013-02-19T15:23:31Z</time>
      </trkpt>
      <trkpt lat="47.41637" lon="6.50882">
        <ele>370.6</ele>
        <time>2013-02-19T15:23:36Z</time>
      </trkpt>
      <trkpt lat="47.41638" lon="6.50892">
        <ele>370.1</ele>
        <time>2013-02-19T15:23:41Z</time>
      </trkpt>
      <trkpt lat="47.41642" lon="6.50902">
        <ele>370</ele>
        <time>2013-02-19T15:23:46Z</time>
      </trkpt>
      <trkpt lat="47.41642" lon="6.50913">
        <ele>369.9</ele>
        <time>2013-02-19T15:23:51Z</time>
      </trkpt>
      <trkpt lat="47.41645" lon="6.50922">
        <ele>369.7</ele>
        <time>2013-02-19T15:23:56Z</time>
      </trkpt>
      <trkpt lat="47.41645" lon="6.50932">
        <ele>369.1</ele>
        <time>2013-02-19T15:24:01Z</time>
      </trkpt>
      <trkpt lat="47.41648" lon="6.5094">
        <ele>368.5</ele>
        <time>2013-02-19T15:24:06Z</time>
      </trkpt>
      <trkpt lat="47.4165" lon="6.50948">
        <ele>368.4</ele>
        <time>2013-02-19T15:24:11Z</time>
      </trkpt>
      <trkpt lat="47.41652" lon="6.50958">
        <ele>368.2</ele>
        <time>2013-02-19T15:24:16Z</time>
      </trkpt>
      <trkpt lat="47.41653" lon="6.50967">
        <ele>368.7</ele>
        <time>2013-02-19T15:24:21Z</time>
      </trkpt>
      <trkpt lat="47.41655" lon="6.50977">
        <ele>367.9</ele>
        <time>2013-02-19T15:24:26Z</time>
      </trkpt>
      <trkpt lat="47.41658" lon="6.50985">
        <ele>367.7</ele>
        <time>2013-02-19T15:24:31Z</time>
      </trkpt>
      <trkpt lat="47.4166" lon="6.50993">
        <ele>367.2</ele>
        <time>2013-02-19T15:24:36Z</time>
      </trkpt>
      <trkpt lat="47.41662" lon="6.51003">
        <ele>367.2</ele>
        <time>2013-02-19T15:24:41Z</time>
      </trkpt>
      <trkpt lat="47.41663" lon="6.51013">
        <ele>366.5</ele>
        <time>2013-02-19T15:24:46Z</time>
      </trkpt>
      <trkpt lat="47.41663" lon="6.51023">
        <ele>366.9</ele>
        <time>2013-02-19T15:24:51Z</time>
      </trkpt>
      <trkpt lat="47.41663" lon="6.51032">
        <ele>366.3</ele>
        <time>2013-02-19T15:24:56Z</time>
      </trkpt>
      <trkpt lat="47.41663" lon="6.5104">
        <ele>365.7</ele>
        <time>2013-02-19T15:25:01Z</time>
      </trkpt>
      <trkpt lat="47.41663" lon="6.51048">
        <ele>365.7</ele>
        <time>2013-02-19T15:25:06Z</time>
      </trkpt>
      <trkpt lat="47.41662" lon="6.51058">
        <ele>365.6</ele>
        <time>2013-02-19T15:25:11Z</time>
      </trkpt>
      <trkpt lat="47.41662" lon="6.51068">
        <ele>365.2</ele>
        <time>2013-02-19T15:25:16Z</time>
      </trkpt>
      <trkpt lat="47.41662" lon="6.51077">
        <ele>364.6</ele>
        <time>2013-02-19T15:25:21Z</time>
      </trkpt>
      <trkpt lat="47.41662" lon="6.51087">
        <ele>364.3</ele>
        <time>2013-02-19T15:25:26Z</time>
      </trkpt>
      <trkpt lat="47.41662" lon="6.51097">
        <ele>364.4</ele>
        <time>2013-02-19T15:25:31Z</time>
      </trkpt>
      <trkpt lat="47.41662" lon="6.51105">
        <ele>363.7</ele>
        <time>2013-02-19T15:25:36Z</time>
      </trkpt>
      <trkpt lat="47.41662" lon="6.51115">
        <ele>363.4</ele>
        <time>2013-02-19T15:25:41Z</time>
      </trkpt>
      <trkpt lat="47.41662" lon="6.51125">
        <ele>363.1</ele>
        <time>2013-02-19T15:25:46Z</time>
      </trkpt>
      <trkpt lat="47.41662" lon="6.51137">
        <ele>362.6</ele>
        <time>2013-02-19T15:25:51Z</time>
      </trkpt>
      <trkpt lat="47.4166" lon="6.51145">
        <ele>361.9</ele>
        <time>2013-02-19T15:25:56Z</time>
      </trkpt>
      <trkpt lat="47.4166" lon="6.51155">
        <ele>362.4</ele>
        <time>2013-02-19T15:26:01Z</time>
      </trkpt>
      <trkpt lat="47.4166" lon="6.51165">
        <ele>361.6</ele>
        <time>2013-02-19T15:26:06Z</time>
      </trkpt>
      <trkpt lat="47.4166" lon="6.51177">
        <ele>361.8</ele>
        <time>2013-02-19T15:26:11Z</time>
      </trkpt>
      <trkpt lat="47.41658" lon="6.51188">
        <ele>361.9</ele>
        <time>2013-02-19T15:26:16Z</time>
      </trkpt>
      <trkpt lat="47.41658" lon="6.51198">
        <ele>361.8</ele>
        <time>2013-02-19T15:26:21Z</time>
      </trkpt>
      <trkpt lat="47.4166" lon="6.51208">
        <ele>362.1</ele>
        <time>2013-02-19T15:26:26Z</time>
      </trkpt>
      <trkpt lat="47.41662" lon="6.51218">
        <ele>361.8</ele>
        <time>2013-02-19T15:26:31Z</time>
      </trkpt>
      <trkpt lat="47.41663" lon="6.51228">
        <ele>361.6</ele>
        <time>2013-02-19T15:26:36Z</time>
      </trkpt>
      <trkpt lat="47.41663" lon="6.51238">
        <ele>361.3</ele>
        <time>2013-02-19T15:26:41Z</time>
      </trkpt>
      <trkpt lat="47.41662" lon="6.5125">
        <ele>361.5</ele>
        <time>2013-02-19T15:26:46Z</time>
      </trkpt>
      <trkpt lat="47.41662" lon="6.5126">
        <ele>361.8</ele>
        <time>2013-02-19T15:26:51Z</time>
      </trkpt>
      <trkpt lat="47.41662" lon="6.51268">
        <ele>361.3</ele>
        <time>2013-02-19T15:26:56Z</time>
      </trkpt>
      <trkpt lat="47.41662" lon="6.51278">
        <ele>361.8</ele>
        <time>2013-02-19T15:27:01Z</time>
      </trkpt>
      <trkpt lat="47.41662" lon="6.51285">
        <ele>361</ele>
        <time>2013-02-19T15:27:06Z</time>
      </trkpt>
      <trkpt lat="47.41662" lon="6.51293">
        <ele>360.8</ele>
        <time>2013-02-19T15:27:11Z</time>
      </trkpt>
      <trkpt lat="47.41662" lon="6.51302">
        <ele>360.4</ele>
        <time>2013-02-19T15:27:16Z</time>
      </trkpt>
      <trkpt lat="47.4166" lon="6.5131">
        <ele>360</ele>
        <time>2013-02-19T15:27:21Z</time>
      </trkpt>
      <trkpt lat="47.4166" lon="6.5132">
        <ele>360.3</ele>
        <time>2013-02-19T15:27:26Z</time>
      </trkpt>
      <trkpt lat="47.4166" lon="6.5133">
        <ele>360.4</ele>
        <time>2013-02-19T15:27:31Z</time>
      </trkpt>
      <trkpt lat="47.4166" lon="6.5134">
        <ele>360.2</ele>
        <time>2013-02-19T15:27:36Z</time>
      </trkpt>
      <trkpt lat="47.4166" lon="6.51352">
        <ele>360.2</ele>
        <time>2013-02-19T15:27:41Z</time>
      </trkpt>
      <trkpt lat="47.4166" lon="6.51362">
        <ele>360.2</ele>
        <time>2013-02-19T15:27:46Z</time>
      </trkpt>
      <trkpt lat="47.41662" lon="6.51372">
        <ele>359.7</ele>
        <time>2013-02-19T15:27:51Z</time>
      </trkpt>
      <trkpt lat="47.41662" lon="6.51382">
        <ele>360</ele>
        <time>2013-02-19T15:27:56Z</time>
      </trkpt>
      <trkpt lat="47.41662" lon="6.51392">
        <ele>359.7</ele>
        <time>2013-02-19T15:28:01Z</time>
      </trkpt>
      <trkpt lat="47.41663" lon="6.51403">
        <ele>359.3</ele>
        <time>2013-02-19T15:28:06Z</time>
      </trkpt>
      <trkpt lat="47.41665" lon="6.51412">
        <ele>359</ele>
        <time>2013-02-19T15:28:11Z</time>
      </trkpt>
      <trkpt lat="47.41667" lon="6.51422">
        <ele>359</ele>
        <time>2013-02-19T15:28:16Z</time>
      </trkpt>
      <trkpt lat="47.4167" lon="6.51432">
        <ele>359.2</ele>
        <time>2013-02-19T15:28:21Z</time>
      </trkpt>
      <trkpt lat="47.4167" lon="6.5144">
        <ele>359.1</ele>
        <time>2013-02-19T15:28:26Z</time>
      </trkpt>
      <trkpt lat="47.41672" lon="6.5145">
        <ele>358.8</ele>
        <time>2013-02-19T15:28:31Z</time>
      </trkpt>
      <trkpt lat="47.41672" lon="6.5146">
        <ele>358.8</ele>
        <time>2013-02-19T15:28:36Z</time>
      </trkpt>
      <trkpt lat="47.41673" lon="6.5147">
        <ele>358.6</ele>
        <time>2013-02-19T15:28:41Z</time>
      </trkpt>
      <trkpt lat="47.41675" lon="6.51482">
        <ele>358.7</ele>
        <time>2013-02-19T15:28:46Z</time>
      </trkpt>
      <trkpt lat="47.41678" lon="6.51492">
        <ele>358.3</ele>
        <time>2013-02-19T15:28:51Z</time>
      </trkpt>
      <trkpt lat="47.4168" lon="6.515">
        <ele>358.1</ele>
        <time>2013-02-19T15:28:56Z</time>
      </trkpt>
      <trkpt lat="47.41682" lon="6.5151">
        <ele>358.1</ele>
        <time>2013-02-19T15:29:01Z</time>
      </trkpt>
      <trkpt lat="47.41682" lon="6.5152">
        <ele>358</ele>
        <time>2013-02-19T15:29:06Z</time>
      </trkpt>
      <trkpt lat="47.41683" lon="6.51528">
        <ele>357.3</ele>
        <time>2013-02-19T15:29:11Z</time>
      </trkpt>
      <trkpt lat="47.41687" lon="6.51538">
        <ele>356.7</ele>
        <time>2013-02-19T15:29:16Z</time>
      </trkpt>
      <trkpt lat="47.41688" lon="6.51548">
        <ele>356</ele>
        <time>2013-02-19T15:29:21Z</time>
      </trkpt>
      <trkpt lat="47.41692" lon="6.51557">
        <ele>354.4</ele>
        <time>2013-02-19T15:29:26Z</time>
      </trkpt>
      <trkpt lat="47.41693" lon="6.51567">
        <ele>355.4</ele>
        <time>2013-02-19T15:29:31Z</time>
      </trkpt>
      <trkpt lat="47.41695" lon="6.51575">
        <ele>356.7</ele>
        <time>2013-02-19T15:29:36Z</time>
      </trkpt>
      <trkpt lat="47.41695" lon="6.51585">
        <ele>356.8</ele>
        <time>2013-02-19T15:29:41Z</time>
      </trkpt>
      <trkpt lat="47.41697" lon="6.51597">
        <ele>354.3</ele>
        <time>2013-02-19T15:29:46Z</time>
      </trkpt>
      <trkpt lat="47.41697" lon="6.51608">
        <ele>354.2</ele>
        <time>2013-02-19T15:29:51Z</time>
      </trkpt>
      <trkpt lat="47.41698" lon="6.5162">
        <ele>353.4</ele>
        <time>2013-02-19T15:29:56Z</time>
      </trkpt>
      <trkpt lat="47.417" lon="6.5163">
        <ele>353.2</ele>
        <time>2013-02-19T15:30:01Z</time>
      </trkpt>
      <trkpt lat="47.41703" lon="6.51638">
        <ele>352.6</ele>
        <time>2013-02-19T15:30:06Z</time>
      </trkpt>
      <trkpt lat="47.41707" lon="6.51648">
        <ele>351.8</ele>
        <time>2013-02-19T15:30:11Z</time>
      </trkpt>
      <trkpt lat="47.41707" lon="6.51658">
        <ele>351.9</ele>
        <time>2013-02-19T15:30:16Z</time>
      </trkpt>
      <trkpt lat="47.41707" lon="6.5167">
        <ele>351.5</ele>
        <time>2013-02-19T15:30:21Z</time>
      </trkpt>
      <trkpt lat="47.41708" lon="6.51678">
        <ele>350.8</ele>
        <time>2013-02-19T15:30:26Z</time>
      </trkpt>
      <trkpt lat="47.4171" lon="6.51688">
        <ele>350.5</ele>
        <time>2013-02-19T15:30:31Z</time>
      </trkpt>
      <trkpt lat="47.41712" lon="6.51698">
        <ele>349.9</ele>
        <time>2013-02-19T15:30:36Z</time>
      </trkpt>
      <trkpt lat="47.41713" lon="6.51707">
        <ele>349.6</ele>
        <time>2013-02-19T15:30:41Z</time>
      </trkpt>
      <trkpt lat="47.41715" lon="6.51717">
        <ele>349.6</ele>
        <time>2013-02-19T15:30:46Z</time>
      </trkpt>
      <trkpt lat="47.41715" lon="6.51725">
        <ele>349.3</ele>
        <time>2013-02-19T15:30:51Z</time>
      </trkpt>
      <trkpt lat="47.41718" lon="6.51735">
        <ele>348.8</ele>
        <time>2013-02-19T15:30:56Z</time>
      </trkpt>
      <trkpt lat="47.4172" lon="6.51745">
        <ele>348.3</ele>
        <time>2013-02-19T15:31:01Z</time>
      </trkpt>
      <trkpt lat="47.41722" lon="6.51752">
        <ele>348</ele>
        <time>2013-02-19T15:31:06Z</time>
      </trkpt>
      <trkpt lat="47.41722" lon="6.51762">
        <ele>347.5</ele>
        <time>2013-02-19T15:31:11Z</time>
      </trkpt>
      <trkpt lat="47.41722" lon="6.51772">
        <ele>346.9</ele>
        <time>2013-02-19T15:31:16Z</time>
      </trkpt>
      <trkpt lat="47.41723" lon="6.51782">
        <ele>346.1</ele>
        <time>2013-02-19T15:31:21Z</time>
      </trkpt>
      <trkpt lat="47.41725" lon="6.5179">
        <ele>346</ele>
        <time>2013-02-19T15:31:26Z</time>
      </trkpt>
      <trkpt lat="47.41725" lon="6.51802">
        <ele>345.5</ele>
        <time>2013-02-19T15:31:31Z</time>
      </trkpt>
      <trkpt lat="47.41727" lon="6.51813">
        <ele>345</ele>
        <time>2013-02-19T15:31:36Z</time>
      </trkpt>
      <trkpt lat="47.41728" lon="6.51823">
        <ele>344.6</ele>
        <time>2013-02-19T15:31:41Z</time>
      </trkpt>
      <trkpt lat="47.4173" lon="6.51832">
        <ele>344</ele>
        <time>2013-02-19T15:31:46Z</time>
      </trkpt>
      <trkpt lat="47.41728" lon="6.51838">
        <ele>343.6</ele>
        <time>2013-02-19T15:31:51Z</time>
      </trkpt>
      <trkpt lat="47.41727" lon="6.5185">
        <ele>342.9</ele>
        <time>2013-02-19T15:31:56Z</time>
      </trkpt>
      <trkpt lat="47.41727" lon="6.5186">
        <ele>343.3</ele>
        <time>2013-02-19T15:32:01Z</time>
      </trkpt>
      <trkpt lat="47.41728" lon="6.5187">
        <ele>342.8</ele>
        <time>2013-02-19T15:32:06Z</time>
      </trkpt>
      <trkpt lat="47.41727" lon="6.51878">
        <ele>342.3</ele>
        <time>2013-02-19T15:32:11Z</time>
      </trkpt>
      <trkpt lat="47.41725" lon="6.51888">
        <ele>342</ele>
        <time>2013-02-19T15:32:16Z</time>
      </trkpt>
      <trkpt lat="47.41725" lon="6.51897">
        <ele>341.6</ele>
        <time>2013-02-19T15:32:21Z</time>
      </trkpt>
      <trkpt lat="47.41723" lon="6.51908">
        <ele>341</ele>
        <time>2013-02-19T15:32:26Z</time>
      </trkpt>
      <trkpt lat="47.41723" lon="6.51917">
        <ele>341</ele>
        <time>2013-02-19T15:32:31Z</time>
      </trkpt>
      <trkpt lat="47.41723" lon="6.51925">
        <ele>340.7</ele>
        <time>2013-02-19T15:32:36Z</time>
      </trkpt>
      <trkpt lat="47.41723" lon="6.51935">
        <ele>340.5</ele>
        <time>2013-02-19T15:32:41Z</time>
      </trkpt>
      <trkpt lat="47.41723" lon="6.51945">
        <ele>339.4</ele>
        <time>2013-02-19T15:32:46Z</time>
      </trkpt>
      <trkpt lat="47.41725" lon="6.51952">
        <ele>339.3</ele>
        <time>2013-02-19T15:32:51Z</time>
      </trkpt>
      <trkpt lat="47.41725" lon="6.51963">
        <ele>339</ele>
        <time>2013-02-19T15:32:56Z</time>
      </trkpt>
      <trkpt lat="47.41723" lon="6.51972">
        <ele>338.6</ele>
        <time>2013-02-19T15:33:01Z</time>
      </trkpt>
      <trkpt lat="47.41722" lon="6.51982">
        <ele>338.2</ele>
        <time>2013-02-19T15:33:06Z</time>
      </trkpt>
      <trkpt lat="47.4172" lon="6.51992">
        <ele>338.1</ele>
        <time>2013-02-19T15:33:11Z</time>
      </trkpt>
      <trkpt lat="47.4172" lon="6.52003">
        <ele>337.5</ele>
        <time>2013-02-19T15:33:16Z</time>
      </trkpt>
      <trkpt lat="47.4172" lon="6.52013">
        <ele>337.3</ele>
        <time>2013-02-19T15:33:21Z</time>
      </trkpt>
      <trkpt lat="47.4172" lon="6.52023">
        <ele>336.3</ele>
        <time>2013-02-19T15:33:26Z</time>
      </trkpt>
      <trkpt lat="47.4172" lon="6.52032">
        <ele>336</ele>
        <time>2013-02-19T15:33:31Z</time>
      </trkpt>
      <trkpt lat="47.4172" lon="6.5204">
        <ele>335.3</ele>
        <time>2013-02-19T15:33:36Z</time>
      </trkpt>
      <trkpt lat="47.4172" lon="6.5205">
        <ele>335.7</ele>
        <time>2013-02-19T15:33:41Z</time>
      </trkpt>
      <trkpt lat="47.41722" lon="6.5206">
        <ele>335.3</ele>
        <time>2013-02-19T15:33:46Z</time>
      </trkpt>
      <trkpt lat="47.41723" lon="6.52068">
        <ele>334.8</ele>
        <time>2013-02-19T15:33:51Z</time>
      </trkpt>
      <trkpt lat="47.41727" lon="6.5208">
        <ele>334.1</ele>
        <time>2013-02-19T15:33:56Z</time>
      </trkpt>
      <trkpt lat="47.41727" lon="6.52088">
        <ele>333.6</ele>
        <time>2013-02-19T15:34:01Z</time>
      </trkpt>
      <trkpt lat="47.41728" lon="6.52095">
        <ele>333.4</ele>
        <time>2013-02-19T15:34:06Z</time>
      </trkpt>
      <trkpt lat="47.41728" lon="6.52105">
        <ele>332.9</ele>
        <time>2013-02-19T15:34:11Z</time>
      </trkpt>
      <trkpt lat="47.41732" lon="6.52113">
        <ele>332.5</ele>
        <time>2013-02-19T15:34:16Z</time>
      </trkpt>
      <trkpt lat="47.41735" lon="6.52122">
        <ele>332.5</ele>
        <time>2013-02-19T15:34:21Z</time>
      </trkpt>
      <trkpt lat="47.41738" lon="6.52128">
        <ele>331.6</ele>
        <time>2013-02-19T15:34:26Z</time>
      </trkpt>
      <trkpt lat="47.4174" lon="6.52137">
        <ele>331.2</ele>
        <time>2013-02-19T15:34:31Z</time>
      </trkpt>
      <trkpt lat="47.41732" lon="6.52147">
        <ele>330.6</ele>
        <time>2013-02-19T15:34:36Z</time>
      </trkpt>
      <trkpt lat="47.41723" lon="6.52147">
        <ele>330.5</ele>
        <time>2013-02-19T15:34:41Z</time>
      </trkpt>
      <trkpt lat="47.41717" lon="6.52142">
        <ele>330.2</ele>
        <time>2013-02-19T15:34:46Z</time>
      </trkpt>
      <trkpt lat="47.41712" lon="6.52137">
        <ele>329.2</ele>
        <time>2013-02-19T15:34:51Z</time>
      </trkpt>
      <trkpt lat="47.41705" lon="6.52132">
        <ele>329.2</ele>
        <time>2013-02-19T15:34:56Z</time>
      </trkpt>
      <trkpt lat="47.417" lon="6.52127">
        <ele>328.8</ele>
        <time>2013-02-19T15:35:01Z</time>
      </trkpt>
      <trkpt lat="47.41697" lon="6.52118">
        <ele>328.4</ele>
        <time>2013-02-19T15:35:06Z</time>
      </trkpt>
      <trkpt lat="47.41693" lon="6.52108">
        <ele>328.2</ele>
        <time>2013-02-19T15:35:11Z</time>
      </trkpt>
      <trkpt lat="47.41688" lon="6.521">
        <ele>328.1</ele>
        <time>2013-02-19T15:35:16Z</time>
      </trkpt>
      <trkpt lat="47.41685" lon="6.52092">
        <ele>327.6</ele>
        <time>2013-02-19T15:35:21Z</time>
      </trkpt>
      <trkpt lat="47.41678" lon="6.52085">
        <ele>327.4</ele>
        <time>2013-02-19T15:35:26Z</time>
      </trkpt>
      <trkpt lat="47.41675" lon="6.52078">
        <ele>327.1</ele>
        <time>2013-02-19T15:35:31Z</time>
      </trkpt>
      <trkpt lat="47.4167" lon="6.5207">
        <ele>326.9</ele>
        <time>2013-02-19T15:35:36Z</time>
      </trkpt>
      <trkpt lat="47.41665" lon="6.52063">
        <ele>326.9</ele>
        <time>2013-02-19T15:35:41Z</time>
      </trkpt>
      <trkpt lat="47.4166" lon="6.52058">
        <ele>326.1</ele>
        <time>2013-02-19T15:35:46Z</time>
      </trkpt>
      <trkpt lat="47.41655" lon="6.52053">
        <ele>326</ele>
        <time>2013-02-19T15:35:51Z</time>
      </trkpt>
      <trkpt lat="47.41648" lon="6.52048">
        <ele>325.9</ele>
        <time>2013-02-19T15:35:56Z</time>
      </trkpt>
      <trkpt lat="47.41642" lon="6.52048">
        <ele>325.6</ele>
        <time>2013-02-19T15:36:01Z</time>
      </trkpt>
      <trkpt lat="47.41637" lon="6.52043">
        <ele>325.2</ele>
        <time>2013-02-19T15:36:06Z</time>
      </trkpt>
      <trkpt lat="47.41637" lon="6.52032">
        <ele>324.9</ele>
        <time>2013-02-19T15:36:11Z</time>
      </trkpt>
      <trkpt lat="47.41637" lon="6.5202">
        <ele>324</ele>
        <time>2013-02-19T15:36:16Z</time>
      </trkpt>
      <trkpt lat="47.4164" lon="6.52012">
        <ele>324</ele>
        <time>2013-02-19T15:36:21Z</time>
      </trkpt>
      <trkpt lat="47.41642" lon="6.52005">
        <ele>324.1</ele>
        <time>2013-02-19T15:36:26Z</time>
      </trkpt>
      <trkpt lat="47.41643" lon="6.51997">
        <ele>323.7</ele>
        <time>2013-02-19T15:36:31Z</time>
      </trkpt>
      <trkpt lat="47.41643" lon="6.51988">
        <ele>323.5</ele>
        <time>2013-02-19T15:36:36Z</time>
      </trkpt>
      <trkpt lat="47.41645" lon="6.5198">
        <ele>323.3</ele>
        <time>2013-02-19T15:36:41Z</time>
      </trkpt>
      <trkpt lat="47.41647" lon="6.51968">
        <ele>322.8</ele>
        <time>2013-02-19T15:36:46Z</time>
      </trkpt>
      <trkpt lat="47.41647" lon="6.51958">
        <ele>323.3</ele>
        <time>2013-02-19T15:36:51Z</time>
      </trkpt>
      <trkpt lat="47.41648" lon="6.51948">
        <ele>322.9</ele>
        <time>2013-02-19T15:36:56Z</time>
      </trkpt>
      <trkpt lat="47.41647" lon="6.5194">
        <ele>322.9</ele>
        <time>2013-02-19T15:37:01Z</time>
      </trkpt>
      <trkpt lat="47.4165" lon="6.5193">
        <ele>322.9</ele>
        <time>2013-02-19T15:37:06Z</time>
      </trkpt>
      <trkpt lat="47.41653" lon="6.51923">
        <ele>321.9</ele>
        <time>2013-02-19T15:37:11Z</time>
      </trkpt>
      <trkpt lat="47.41653" lon="6.51913">
        <ele>323.3</ele>
        <time>2013-02-19T15:37:16Z</time>
      </trkpt>
      <trkpt lat="47.41657" lon="6.51905">
        <ele>322.5</ele>
        <time>2013-02-19T15:37:21Z</time>
      </trkpt>
      <trkpt lat="47.41657" lon="6.51895">
        <ele>322.4</ele>
        <time>2013-02-19T15:37:26Z</time>
      </trkpt>
      <trkpt lat="47.41658" lon="6.51883">
        <ele>322.1</ele>
        <time>2013-02-19T15:37:31Z</time>
      </trkpt>
      <trkpt lat="47.4166" lon="6.51873">
        <ele>322.1</ele>
        <time>2013-02-19T15:37:36Z</time>
      </trkpt>
      <trkpt lat="47.41662" lon="6.51862">
        <ele>322.1</ele>
        <time>2013-02-19T15:37:41Z</time>
      </trkpt>
      <trkpt lat="47.41662" lon="6.5185">
        <ele>321.6</ele>
        <time>2013-02-19T15:37:46Z</time>
      </trkpt>
      <trkpt lat="47.41663" lon="6.5184">
        <ele>321.9</ele>
        <time>2013-02-19T15:37:51Z</time>
      </trkpt>
      <trkpt lat="47.41663" lon="6.5183">
        <ele>321.9</ele>
        <time>2013-02-19T15:37:56Z</time>
      </trkpt>
      <trkpt lat="47.41663" lon="6.51822">
        <ele>321.8</ele>
        <time>2013-02-19T15:38:01Z</time>
      </trkpt>
      <trkpt lat="47.41665" lon="6.5181">
        <ele>322</ele>
        <time>2013-02-19T15:38:06Z</time>
      </trkpt>
      <trkpt lat="47.41667" lon="6.518">
        <ele>322.2</ele>
        <time>2013-02-19T15:38:11Z</time>
      </trkpt>
      <trkpt lat="47.4167" lon="6.5179">
        <ele>321.9</ele>
        <time>2013-02-19T15:38:16Z</time>
      </trkpt>
      <trkpt lat="47.41672" lon="6.5178">
        <ele>321.8</ele>
        <time>2013-02-19T15:38:21Z</time>
      </trkpt>
      <trkpt lat="47.41672" lon="6.51768">
        <ele>322.5</ele>
        <time>2013-02-19T15:38:26Z</time>
      </trkpt>
      <trkpt lat="47.41672" lon="6.51757">
        <ele>322.2</ele>
        <time>2013-02-19T15:38:31Z</time>
      </trkpt>
      <trkpt lat="47.4167" lon="6.51747">
        <ele>322.6</ele>
        <time>2013-02-19T15:38:36Z</time>
      </trkpt>
      <trkpt lat="47.4167" lon="6.51735">
        <ele>322.3</ele>
        <time>2013-02-19T15:38:41Z</time>
      </trkpt>
      <trkpt lat="47.41668" lon="6.51725">
        <ele>322.6</ele>
        <time>2013-02-19T15:38:46Z</time>
      </trkpt>
      <trkpt lat="47.41667" lon="6.51713">
        <ele>322.5</ele>
        <time>2013-02-19T15:38:51Z</time>
      </trkpt>
      <trkpt lat="47.41667" lon="6.51703">
        <ele>322.6</ele>
        <time>2013-02-19T15:38:56Z</time>
      </trkpt>
      <trkpt lat="47.41665" lon="6.51695">
        <ele>322.2</ele>
        <time>2013-02-19T15:39:01Z</time>
      </trkpt>
      <trkpt lat="47.41662" lon="6.51683">
        <ele>322.2</ele>
        <time>2013-02-19T15:39:06Z</time>
      </trkpt>
      <trkpt lat="47.4166" lon="6.51673">
        <ele>322.3</ele>
        <time>2013-02-19T15:39:11Z</time>
      </trkpt>
      <trkpt lat="47.41657" lon="6.5166">
        <ele>322</ele>
        <time>2013-02-19T15:39:16Z</time>
      </trkpt>
      <trkpt lat="47.41653" lon="6.5165">
        <ele>322.1</ele>
        <time>2013-02-19T15:39:21Z</time>
      </trkpt>
      <trkpt lat="47.4165" lon="6.51642">
        <ele>322.7</ele>
        <time>2013-02-19T15:39:26Z</time>
      </trkpt>
      <trkpt lat="47.41647" lon="6.51632">
        <ele>322.4</ele>
        <time>2013-02-19T15:39:31Z</time>
      </trkpt>
      <trkpt lat="47.41645" lon="6.51623">
        <ele>322.2</ele>
        <time>2013-02-19T15:39:36Z</time>
      </trkpt>
      <trkpt lat="47.41643" lon="6.51613">
        <ele>322.2</ele>
        <time>2013-02-19T15:39:41Z</time>
      </trkpt>
      <trkpt lat="47.41638" lon="6.51605">
        <ele>322.3</ele>
        <time>2013-02-19T15:39:46Z</time>
      </trkpt>
      <trkpt lat="47.41637" lon="6.51595">
        <ele>322.4</ele>
        <time>2013-02-19T15:39:51Z</time>
      </trkpt>
      <trkpt lat="47.41633" lon="6.5159">
        <ele>322</ele>
        <time>2013-02-19T15:39:56Z</time>
      </trkpt>
      <trkpt lat="47.4163" lon="6.51582">
        <ele>322</ele>
        <time>2013-02-19T15:40:01Z</time>
      </trkpt>
      <trkpt lat="47.41627" lon="6.51572">
        <ele>321.7</ele>
        <time>2013-02-19T15:40:06Z</time>
      </trkpt>
      <trkpt lat="47.41625" lon="6.5156">
        <ele>322.2</ele>
        <time>2013-02-19T15:40:11Z</time>
      </trkpt>
      <trkpt lat="47.4162" lon="6.51552">
        <ele>322.5</ele>
        <time>2013-02-19T15:40:16Z</time>
      </trkpt>
      <trkpt lat="47.41615" lon="6.51542">
        <ele>322.6</ele>
        <time>2013-02-19T15:40:21Z</time>
      </trkpt>
      <trkpt lat="47.4161" lon="6.51535">
        <ele>323</ele>
        <time>2013-02-19T15:40:26Z</time>
      </trkpt>
      <trkpt lat="47.41605" lon="6.51527">
        <ele>322.4</ele>
        <time>2013-02-19T15:40:31Z</time>
      </trkpt>
      <trkpt lat="47.416" lon="6.51518">
        <ele>322.5</ele>
        <time>2013-02-19T15:40:36Z</time>
      </trkpt>
      <trkpt lat="47.41595" lon="6.51512">
        <ele>322.5</ele>
        <time>2013-02-19T15:40:41Z</time>
      </trkpt>
      <trkpt lat="47.4159" lon="6.51503">
        <ele>322.3</ele>
        <time>2013-02-19T15:40:46Z</time>
      </trkpt>
      <trkpt lat="47.41585" lon="6.51497">
        <ele>322.8</ele>
        <time>2013-02-19T15:40:51Z</time>
      </trkpt>
      <trkpt lat="47.41582" lon="6.5149">
        <ele>322.5</ele>
        <time>2013-02-19T15:40:56Z</time>
      </trkpt>
      <trkpt lat="47.41578" lon="6.51483">
        <ele>322.8</ele>
        <time>2013-02-19T15:41:01Z</time>
      </trkpt>
      <trkpt lat="47.41573" lon="6.51477">
        <ele>322.6</ele>
        <time>2013-02-19T15:41:06Z</time>
      </trkpt>
      <trkpt lat="47.41568" lon="6.5147">
        <ele>322.1</ele>
        <time>2013-02-19T15:41:11Z</time>
      </trkpt>
      <trkpt lat="47.41565" lon="6.51463">
        <ele>322.7</ele>
        <time>2013-02-19T15:41:16Z</time>
      </trkpt>
      <trkpt lat="47.41558" lon="6.51452">
        <ele>322.2</ele>
        <time>2013-02-19T15:41:21Z</time>
      </trkpt>
      <trkpt lat="47.41553" lon="6.5144">
        <ele>322.6</ele>
        <time>2013-02-19T15:41:26Z</time>
      </trkpt>
      <trkpt lat="47.4155" lon="6.51433">
        <ele>323</ele>
        <time>2013-02-19T15:41:31Z</time>
      </trkpt>
      <trkpt lat="47.41545" lon="6.51425">
        <ele>322.8</ele>
        <time>2013-02-19T15:41:36Z</time>
      </trkpt>
      <trkpt lat="47.4154" lon="6.51418">
        <ele>322.7</ele>
        <time>2013-02-19T15:41:41Z</time>
      </trkpt>
      <trkpt lat="47.41537" lon="6.5141">
        <ele>322.6</ele>
        <time>2013-02-19T15:41:46Z</time>
      </trkpt>
      <trkpt lat="47.41532" lon="6.51403">
        <ele>322.6</ele>
        <time>2013-02-19T15:41:51Z</time>
      </trkpt>
      <trkpt lat="47.41528" lon="6.51397">
        <ele>322.6</ele>
        <time>2013-02-19T15:41:56Z</time>
      </trkpt>
      <trkpt lat="47.41523" lon="6.51388">
        <ele>322.9</ele>
        <time>2013-02-19T15:42:01Z</time>
      </trkpt>
      <trkpt lat="47.41518" lon="6.51382">
        <ele>322.6</ele>
        <time>2013-02-19T15:42:06Z</time>
      </trkpt>
      <trkpt lat="47.41515" lon="6.51377">
        <ele>322.9</ele>
        <time>2013-02-19T15:42:11Z</time>
      </trkpt>
      <trkpt lat="47.41508" lon="6.51368">
        <ele>322.3</ele>
        <time>2013-02-19T15:42:16Z</time>
      </trkpt>
      <trkpt lat="47.41502" lon="6.5136">
        <ele>322.1</ele>
        <time>2013-02-19T15:42:21Z</time>
      </trkpt>
      <trkpt lat="47.41497" lon="6.51352">
        <ele>322.8</ele>
        <time>2013-02-19T15:42:26Z</time>
      </trkpt>
      <trkpt lat="47.41493" lon="6.51345">
        <ele>322.4</ele>
        <time>2013-02-19T15:42:31Z</time>
      </trkpt>
      <trkpt lat="47.41488" lon="6.51338">
        <ele>322.4</ele>
        <time>2013-02-19T15:42:36Z</time>
      </trkpt>
      <trkpt lat="47.41483" lon="6.51332">
        <ele>322.1</ele>
        <time>2013-02-19T15:42:41Z</time>
      </trkpt>
      <trkpt lat="47.41477" lon="6.51325">
        <ele>322.4</ele>
        <time>2013-02-19T15:42:46Z</time>
      </trkpt>
      <trkpt lat="47.41472" lon="6.51318">
        <ele>322.7</ele>
        <time>2013-02-19T15:42:51Z</time>
      </trkpt>
      <trkpt lat="47.41465" lon="6.51312">
        <ele>322.7</ele>
        <time>2013-02-19T15:42:56Z</time>
      </trkpt>
      <trkpt lat="47.4146" lon="6.51305">
        <ele>322.7</ele>
        <time>2013-02-19T15:43:01Z</time>
      </trkpt>
      <trkpt lat="47.41455" lon="6.513">
        <ele>322.6</ele>
        <time>2013-02-19T15:43:06Z</time>
      </trkpt>
      <trkpt lat="47.4145" lon="6.51295">
        <ele>322.8</ele>
        <time>2013-02-19T15:43:11Z</time>
      </trkpt>
      <trkpt lat="47.41445" lon="6.51292">
        <ele>322.3</ele>
        <time>2013-02-19T15:43:16Z</time>
      </trkpt>
      <trkpt lat="47.41438" lon="6.51287">
        <ele>322.9</ele>
        <time>2013-02-19T15:43:21Z</time>
      </trkpt>
      <trkpt lat="47.41432" lon="6.51283">
        <ele>322.9</ele>
        <time>2013-02-19T15:43:26Z</time>
      </trkpt>
      <trkpt lat="47.41425" lon="6.51278">
        <ele>322.7</ele>
        <time>2013-02-19T15:43:31Z</time>
      </trkpt>
      <trkpt lat="47.4142" lon="6.51275">
        <ele>322.9</ele>
        <time>2013-02-19T15:43:36Z</time>
      </trkpt>
      <trkpt lat="47.41415" lon="6.5127">
        <ele>322.5</ele>
        <time>2013-02-19T15:43:41Z</time>
      </trkpt>
      <trkpt lat="47.41407" lon="6.51267">
        <ele>323.1</ele>
        <time>2013-02-19T15:43:46Z</time>
      </trkpt>
      <trkpt lat="47.41402" lon="6.51263">
        <ele>322.8</ele>
        <time>2013-02-19T15:43:51Z</time>
      </trkpt>
      <trkpt lat="47.41395" lon="6.51262">
        <ele>323.2</ele>
        <time>2013-02-19T15:43:56Z</time>
      </trkpt>
      <trkpt lat="47.4139" lon="6.51257">
        <ele>322.9</ele>
        <time>2013-02-19T15:44:01Z</time>
      </trkpt>
      <trkpt lat="47.41385" lon="6.51253">
        <ele>322.9</ele>
        <time>2013-02-19T15:44:06Z</time>
      </trkpt>
      <trkpt lat="47.4138" lon="6.51252">
        <ele>322.5</ele>
        <time>2013-02-19T15:44:11Z</time>
      </trkpt>
      <trkpt lat="47.41373" lon="6.51247">
        <ele>322.8</ele>
        <time>2013-02-19T15:44:16Z</time>
      </trkpt>
      <trkpt lat="47.41368" lon="6.51245">
        <ele>322.2</ele>
        <time>2013-02-19T15:44:21Z</time>
      </trkpt>
      <trkpt lat="47.41363" lon="6.51242">
        <ele>323.1</ele>
        <time>2013-02-19T15:44:26Z</time>
      </trkpt>
      <trkpt lat="47.41357" lon="6.51238">
        <ele>322.7</ele>
        <time>2013-02-19T15:44:31Z</time>
      </trkpt>
      <trkpt lat="47.41352" lon="6.51235">
        <ele>322</ele>
        <time>2013-02-19T15:44:36Z</time>
      </trkpt>
      <trkpt lat="47.41345" lon="6.51232">
        <ele>323.3</ele>
        <time>2013-02-19T15:44:41Z</time>
      </trkpt>
      <trkpt lat="47.4134" lon="6.51228">
        <ele>319.8</ele>
        <time>2013-02-19T15:44:46Z</time>
      </trkpt>
      <trkpt lat="47.41333" lon="6.51223">
        <ele>323.3</ele>
        <time>2013-02-19T15:44:51Z</time>
      </trkpt>
      <trkpt lat="47.41327" lon="6.5122">
        <ele>323</ele>
        <time>2013-02-19T15:44:56Z</time>
      </trkpt>
      <trkpt lat="47.4132" lon="6.51217">
        <ele>323.2</ele>
        <time>2013-02-19T15:45:01Z</time>
      </trkpt>
      <trkpt lat="47.41313" lon="6.51215">
        <ele>322.5</ele>
        <time>2013-02-19T15:45:06Z</time>
      </trkpt>
      <trkpt lat="47.41307" lon="6.51212">
        <ele>322.7</ele>
        <time>2013-02-19T15:45:11Z</time>
      </trkpt>
      <trkpt lat="47.41302" lon="6.5121">
        <ele>322.4</ele>
        <time>2013-02-19T15:45:16Z</time>
      </trkpt>
      <trkpt lat="47.41295" lon="6.51208">
        <ele>322.7</ele>
        <time>2013-02-19T15:45:21Z</time>
      </trkpt>
      <trkpt lat="47.41288" lon="6.51208">
        <ele>323.3</ele>
        <time>2013-02-19T15:45:26Z</time>
      </trkpt>
      <trkpt lat="47.41287" lon="6.51207">
        <ele>323.2</ele>
        <time>2013-02-19T15:45:31Z</time>
      </trkpt>
      <trkpt lat="47.41277" lon="6.51203">
        <ele>322.4</ele>
        <time>2013-02-19T15:45:36Z</time>
      </trkpt>
      <trkpt lat="47.41268" lon="6.51203">
        <ele>323.1</ele>
        <time>2013-02-19T15:45:41Z</time>
      </trkpt>
      <trkpt lat="47.41262" lon="6.512">
        <ele>322.6</ele>
        <time>2013-02-19T15:45:46Z</time>
      </trkpt>
      <trkpt lat="47.41253" lon="6.51197">
        <ele>323.1</ele>
        <time>2013-02-19T15:45:51Z</time>
      </trkpt>
      <trkpt lat="47.41247" lon="6.51197">
        <ele>322.9</ele>
        <time>2013-02-19T15:45:56Z</time>
      </trkpt>
      <trkpt lat="47.41242" lon="6.51197">
        <ele>323.6</ele>
        <time>2013-02-19T15:46:01Z</time>
      </trkpt>
      <trkpt lat="47.41237" lon="6.51195">
        <ele>322.9</ele>
        <time>2013-02-19T15:46:06Z</time>
      </trkpt>
      <trkpt lat="47.41235" lon="6.51192">
        <ele>323.4</ele>
        <time>2013-02-19T15:46:11Z</time>
      </trkpt>
      <trkpt lat="47.41228" lon="6.51193">
        <ele>323</ele>
        <time>2013-02-19T15:46:16Z</time>
      </trkpt>
      <trkpt lat="47.4122" lon="6.51195">
        <ele>323.9</ele>
        <time>2013-02-19T15:46:21Z</time>
      </trkpt>
      <trkpt lat="47.4121" lon="6.51188">
        <ele>322.8</ele>
        <time>2013-02-19T15:46:26Z</time>
      </trkpt>
      <trkpt lat="47.412" lon="6.51183">
        <ele>322.6</ele>
        <time>2013-02-19T15:46:31Z</time>
      </trkpt>
      <trkpt lat="47.41193" lon="6.51178">
        <ele>323.5</ele>
        <time>2013-02-19T15:46:36Z</time>
      </trkpt>
      <trkpt lat="47.41187" lon="6.51178">
        <ele>322.8</ele>
        <time>2013-02-19T15:46:41Z</time>
      </trkpt>
      <trkpt lat="47.41182" lon="6.51178">
        <ele>325.3</ele>
        <time>2013-02-19T15:46:46Z</time>
      </trkpt>
      <trkpt lat="47.41177" lon="6.51178">
        <ele>322.3</ele>
        <time>2013-02-19T15:46:51Z</time>
      </trkpt>
      <trkpt lat="47.4117" lon="6.51177">
        <ele>323</ele>
        <time>2013-02-19T15:46:56Z</time>
      </trkpt>
      <trkpt lat="47.41165" lon="6.51175">
        <ele>322.7</ele>
        <time>2013-02-19T15:47:01Z</time>
      </trkpt>
      <trkpt lat="47.41158" lon="6.51173">
        <ele>323.6</ele>
        <time>2013-02-19T15:47:06Z</time>
      </trkpt>
      <trkpt lat="47.41152" lon="6.5117">
        <ele>322.8</ele>
        <time>2013-02-19T15:47:11Z</time>
      </trkpt>
      <trkpt lat="47.41145" lon="6.51167">
        <ele>318.9</ele>
        <time>2013-02-19T15:47:16Z</time>
      </trkpt>
      <trkpt lat="47.41137" lon="6.51167">
        <ele>324.1</ele>
        <time>2013-02-19T15:47:21Z</time>
      </trkpt>
      <trkpt lat="47.4113" lon="6.51165">
        <ele>323.8</ele>
        <time>2013-02-19T15:47:26Z</time>
      </trkpt>
      <trkpt lat="47.41123" lon="6.51165">
        <ele>322.1</ele>
        <time>2013-02-19T15:47:31Z</time>
      </trkpt>
      <trkpt lat="47.41117" lon="6.51163">
        <ele>323.8</ele>
        <time>2013-02-19T15:47:36Z</time>
      </trkpt>
      <trkpt lat="47.41108" lon="6.51163">
        <ele>322.7</ele>
        <time>2013-02-19T15:47:41Z</time>
      </trkpt>
      <trkpt lat="47.411" lon="6.51162">
        <ele>322.7</ele>
        <time>2013-02-19T15:47:46Z</time>
      </trkpt>
      <trkpt lat="47.41093" lon="6.5116">
        <ele>322.6</ele>
        <time>2013-02-19T15:47:51Z</time>
      </trkpt>
      <trkpt lat="47.41085" lon="6.51158">
        <ele>323.2</ele>
        <time>2013-02-19T15:47:56Z</time>
      </trkpt>
      <trkpt lat="47.41077" lon="6.51155">
        <ele>322.8</ele>
        <time>2013-02-19T15:48:01Z</time>
      </trkpt>
      <trkpt lat="47.41072" lon="6.51155">
        <ele>322.6</ele>
        <time>2013-02-19T15:48:06Z</time>
      </trkpt>
      <trkpt lat="47.41065" lon="6.51157">
        <ele>322.9</ele>
        <time>2013-02-19T15:48:11Z</time>
      </trkpt>
      <trkpt lat="47.41058" lon="6.51155">
        <ele>323.1</ele>
        <time>2013-02-19T15:48:16Z</time>
      </trkpt>
      <trkpt lat="47.4105" lon="6.51155">
        <ele>322.3</ele>
        <time>2013-02-19T15:48:21Z</time>
      </trkpt>
      <trkpt lat="47.41043" lon="6.51153">
        <ele>322.1</ele>
        <time>2013-02-19T15:48:26Z</time>
      </trkpt>
      <trkpt lat="47.41035" lon="6.5115">
        <ele>322.5</ele>
        <time>2013-02-19T15:48:31Z</time>
      </trkpt>
      <trkpt lat="47.41028" lon="6.5115">
        <ele>322.5</ele>
        <time>2013-02-19T15:48:36Z</time>
      </trkpt>
      <trkpt lat="47.41022" lon="6.51148">
        <ele>322.1</ele>
        <time>2013-02-19T15:48:41Z</time>
      </trkpt>
      <trkpt lat="47.41017" lon="6.51148">
        <ele>322.6</ele>
        <time>2013-02-19T15:48:46Z</time>
      </trkpt>
      <trkpt lat="47.4101" lon="6.51147">
        <ele>322.8</ele>
        <time>2013-02-19T15:48:51Z</time>
      </trkpt>
      <trkpt lat="47.41005" lon="6.51147">
        <ele>322.7</ele>
        <time>2013-02-19T15:48:56Z</time>
      </trkpt>
      <trkpt lat="47.40997" lon="6.51147">
        <ele>323.1</ele>
        <time>2013-02-19T15:49:01Z</time>
      </trkpt>
      <trkpt lat="47.4099" lon="6.51147">
        <ele>323</ele>
        <time>2013-02-19T15:49:06Z</time>
      </trkpt>
      <trkpt lat="47.40982" lon="6.51147">
        <ele>322.9</ele>
        <time>2013-02-19T15:49:11Z</time>
      </trkpt>
      <trkpt lat="47.40975" lon="6.51145">
        <ele>322.4</ele>
        <time>2013-02-19T15:49:16Z</time>
      </trkpt>
      <trkpt lat="47.40967" lon="6.51143">
        <ele>322.6</ele>
        <time>2013-02-19T15:49:21Z</time>
      </trkpt>
      <trkpt lat="47.4096" lon="6.51143">
        <ele>322.6</ele>
        <time>2013-02-19T15:49:26Z</time>
      </trkpt>
      <trkpt lat="47.40953" lon="6.51142">
        <ele>322.6</ele>
        <time>2013-02-19T15:49:31Z</time>
      </trkpt>
      <trkpt lat="47.40945" lon="6.51143">
        <ele>322.5</ele>
        <time>2013-02-19T15:49:36Z</time>
      </trkpt>
      <trkpt lat="47.40935" lon="6.51142">
        <ele>322.4</ele>
        <time>2013-02-19T15:49:41Z</time>
      </trkpt>
      <trkpt lat="47.4093" lon="6.51143">
        <ele>322.4</ele>
        <time>2013-02-19T15:49:46Z</time>
      </trkpt>
      <trkpt lat="47.40925" lon="6.51143">
        <ele>322.3</ele>
        <time>2013-02-19T15:49:51Z</time>
      </trkpt>
      <trkpt lat="47.40917" lon="6.51143">
        <ele>322.8</ele>
        <time>2013-02-19T15:49:56Z</time>
      </trkpt>
      <trkpt lat="47.40907" lon="6.51142">
        <ele>322.5</ele>
        <time>2013-02-19T15:50:01Z</time>
      </trkpt>
      <trkpt lat="47.40902" lon="6.5114">
        <ele>322.3</ele>
        <time>2013-02-19T15:50:06Z</time>
      </trkpt>
      <trkpt lat="47.40897" lon="6.5114">
        <ele>322.5</ele>
        <time>2013-02-19T15:50:11Z</time>
      </trkpt>
      <trkpt lat="47.40887" lon="6.51138">
        <ele>322.6</ele>
        <time>2013-02-19T15:50:16Z</time>
      </trkpt>
      <trkpt lat="47.40878" lon="6.51137">
        <ele>322</ele>
        <time>2013-02-19T15:50:21Z</time>
      </trkpt>
      <trkpt lat="47.40872" lon="6.51137">
        <ele>322.3</ele>
        <time>2013-02-19T15:50:26Z</time>
      </trkpt>
      <trkpt lat="47.40863" lon="6.51137">
        <ele>322.5</ele>
        <time>2013-02-19T15:50:31Z</time>
      </trkpt>
      <trkpt lat="47.40855" lon="6.51135">
        <ele>321.8</ele>
        <time>2013-02-19T15:50:36Z</time>
      </trkpt>
      <trkpt lat="47.40848" lon="6.51133">
        <ele>322.5</ele>
        <time>2013-02-19T15:50:41Z</time>
      </trkpt>
      <trkpt lat="47.40842" lon="6.51132">
        <ele>322.1</ele>
        <time>2013-02-19T15:50:46Z</time>
      </trkpt>
      <trkpt lat="47.40832" lon="6.51132">
        <ele>322</ele>
        <time>2013-02-19T15:50:51Z</time>
      </trkpt>
      <trkpt lat="47.40823" lon="6.51128">
        <ele>322.2</ele>
        <time>2013-02-19T15:50:56Z</time>
      </trkpt>
      <trkpt lat="47.40818" lon="6.5113">
        <ele>321.9</ele>
        <time>2013-02-19T15:51:01Z</time>
      </trkpt>
      <trkpt lat="47.40813" lon="6.5113">
        <ele>322.2</ele>
        <time>2013-02-19T15:51:06Z</time>
      </trkpt>
      <trkpt lat="47.40807" lon="6.51128">
        <ele>322.3</ele>
        <time>2013-02-19T15:51:11Z</time>
      </trkpt>
      <trkpt lat="47.40797" lon="6.51128">
        <ele>321.7</ele>
        <time>2013-02-19T15:51:16Z</time>
      </trkpt>
      <trkpt lat="47.4079" lon="6.51127">
        <ele>322.1</ele>
        <time>2013-02-19T15:51:21Z</time>
      </trkpt>
      <trkpt lat="47.40782" lon="6.51128">
        <ele>321.1</ele>
        <time>2013-02-19T15:51:26Z</time>
      </trkpt>
      <trkpt lat="47.40773" lon="6.51128">
        <ele>322.7</ele>
        <time>2013-02-19T15:51:31Z</time>
      </trkpt>
      <trkpt lat="47.40763" lon="6.51127">
        <ele>321.1</ele>
        <time>2013-02-19T15:51:36Z</time>
      </trkpt>
      <trkpt lat="47.40755" lon="6.51125">
        <ele>321.3</ele>
        <time>2013-02-19T15:51:41Z</time>
      </trkpt>
      <trkpt lat="47.40747" lon="6.51127">
        <ele>321.5</ele>
        <time>2013-02-19T15:51:46Z</time>
      </trkpt>
      <trkpt lat="47.4074" lon="6.51127">
        <ele>321.7</ele>
        <time>2013-02-19T15:51:51Z</time>
      </trkpt>
      <trkpt lat="47.40735" lon="6.51125">
        <ele>321.6</ele>
        <time>2013-02-19T15:51:56Z</time>
      </trkpt>
      <trkpt lat="47.4073" lon="6.51127">
        <ele>321.7</ele>
        <time>2013-02-19T15:52:01Z</time>
      </trkpt>
      <trkpt lat="47.40723" lon="6.51125">
        <ele>321.8</ele>
        <time>2013-02-19T15:52:06Z</time>
      </trkpt>
      <trkpt lat="47.40717" lon="6.51123">
        <ele>322.2</ele>
        <time>2013-02-19T15:52:11Z</time>
      </trkpt>
      <trkpt lat="47.40708" lon="6.51123">
        <ele>322.2</ele>
        <time>2013-02-19T15:52:16Z</time>
      </trkpt>
      <trkpt lat="47.407" lon="6.51122">
        <ele>322</ele>
        <time>2013-02-19T15:52:21Z</time>
      </trkpt>
      <trkpt lat="47.40692" lon="6.5112">
        <ele>321.4</ele>
        <time>2013-02-19T15:52:26Z</time>
      </trkpt>
      <trkpt lat="47.40683" lon="6.51118">
        <ele>321.7</ele>
        <time>2013-02-19T15:52:31Z</time>
      </trkpt>
      <trkpt lat="47.40675" lon="6.51118">
        <ele>321.6</ele>
        <time>2013-02-19T15:52:36Z</time>
      </trkpt>
      <trkpt lat="47.40668" lon="6.51118">
        <ele>321.3</ele>
        <time>2013-02-19T15:52:41Z</time>
      </trkpt>
      <trkpt lat="47.40665" lon="6.51117">
        <ele>321.6</ele>
        <time>2013-02-19T15:52:46Z</time>
      </trkpt>
      <trkpt lat="47.40658" lon="6.51118">
        <ele>320.3</ele>
        <time>2013-02-19T15:52:51Z</time>
      </trkpt>
      <trkpt lat="47.40652" lon="6.51118">
        <ele>322</ele>
        <time>2013-02-19T15:52:56Z</time>
      </trkpt>
      <trkpt lat="47.40643" lon="6.51118">
        <ele>322.6</ele>
        <time>2013-02-19T15:53:01Z</time>
      </trkpt>
      <trkpt lat="47.40637" lon="6.51117">
        <ele>321.6</ele>
        <time>2013-02-19T15:53:06Z</time>
      </trkpt>
      <trkpt lat="47.4063" lon="6.51115">
        <ele>322.5</ele>
        <time>2013-02-19T15:53:11Z</time>
      </trkpt>
      <trkpt lat="47.40623" lon="6.51115">
        <ele>321.5</ele>
        <time>2013-02-19T15:53:16Z</time>
      </trkpt>
      <trkpt lat="47.40615" lon="6.51117">
        <ele>322.1</ele>
        <time>2013-02-19T15:53:21Z</time>
      </trkpt>
      <trkpt lat="47.40607" lon="6.51117">
        <ele>322.3</ele>
        <time>2013-02-19T15:53:26Z</time>
      </trkpt>
      <trkpt lat="47.406" lon="6.51115">
        <ele>322.4</ele>
        <time>2013-02-19T15:53:31Z</time>
      </trkpt>
      <trkpt lat="47.40593" lon="6.51115">
        <ele>321.8</ele>
        <time>2013-02-19T15:53:36Z</time>
      </trkpt>
      <trkpt lat="47.40587" lon="6.51115">
        <ele>321.8</ele>
        <time>2013-02-19T15:53:41Z</time>
      </trkpt>
      <trkpt lat="47.40578" lon="6.51115">
        <ele>322</ele>
        <time>2013-02-19T15:53:46Z</time>
      </trkpt>
      <trkpt lat="47.40575" lon="6.51117">
        <ele>321.5</ele>
        <time>2013-02-19T15:53:51Z</time>
      </trkpt>
      <trkpt lat="47.40568" lon="6.51115">
        <ele>321.5</ele>
        <time>2013-02-19T15:53:56Z</time>
      </trkpt>
      <trkpt lat="47.40562" lon="6.51115">
        <ele>321.5</ele>
        <time>2013-02-19T15:54:01Z</time>
      </trkpt>
      <trkpt lat="47.4055" lon="6.51115">
        <ele>323.1</ele>
        <time>2013-02-19T15:54:06Z</time>
      </trkpt>
      <trkpt lat="47.4054" lon="6.51113">
        <ele>322.2</ele>
        <time>2013-02-19T15:54:11Z</time>
      </trkpt>
      <trkpt lat="47.40533" lon="6.51113">
        <ele>322.1</ele>
        <time>2013-02-19T15:54:16Z</time>
      </trkpt>
      <trkpt lat="47.40528" lon="6.51113">
        <ele>322.3</ele>
        <time>2013-02-19T15:54:21Z</time>
      </trkpt>
      <trkpt lat="47.40523" lon="6.51113">
        <ele>322.1</ele>
        <time>2013-02-19T15:54:26Z</time>
      </trkpt>
      <trkpt lat="47.40515" lon="6.51113">
        <ele>322.4</ele>
        <time>2013-02-19T15:54:31Z</time>
      </trkpt>
      <trkpt lat="47.40508" lon="6.51113">
        <ele>322.5</ele>
        <time>2013-02-19T15:54:36Z</time>
      </trkpt>
      <trkpt lat="47.40498" lon="6.51112">
        <ele>322.2</ele>
        <time>2013-02-19T15:54:41Z</time>
      </trkpt>
      <trkpt lat="47.40488" lon="6.51112">
        <ele>322</ele>
        <time>2013-02-19T15:54:46Z</time>
      </trkpt>
      <trkpt lat="47.40482" lon="6.51112">
        <ele>321.8</ele>
        <time>2013-02-19T15:54:51Z</time>
      </trkpt>
      <trkpt lat="47.40477" lon="6.5111">
        <ele>322.6</ele>
        <time>2013-02-19T15:54:56Z</time>
      </trkpt>
      <trkpt lat="47.4047" lon="6.5111">
        <ele>323.1</ele>
        <time>2013-02-19T15:55:01Z</time>
      </trkpt>
      <trkpt lat="47.40463" lon="6.5111">
        <ele>322.4</ele>
        <time>2013-02-19T15:55:06Z</time>
      </trkpt>
      <trkpt lat="47.40457" lon="6.51108">
        <ele>321.7</ele>
        <time>2013-02-19T15:55:11Z</time>
      </trkpt>
      <trkpt lat="47.40447" lon="6.51105">
        <ele>322.2</ele>
        <time>2013-02-19T15:55:16Z</time>
      </trkpt>
      <trkpt lat="47.40438" lon="6.51103">
        <ele>322.5</ele>
        <time>2013-02-19T15:55:21Z</time>
      </trkpt>
      <trkpt lat="47.40433" lon="6.51102">
        <ele>321.9</ele>
        <time>2013-02-19T15:55:26Z</time>
      </trkpt>
      <trkpt lat="47.40428" lon="6.51098">
        <ele>322.1</ele>
        <time>2013-02-19T15:55:31Z</time>
      </trkpt>
      <trkpt lat="47.40423" lon="6.51095">
        <ele>322.1</ele>
        <time>2013-02-19T15:55:36Z</time>
      </trkpt>
      <trkpt lat="47.40417" lon="6.51093">
        <ele>322.1</ele>
        <time>2013-02-19T15:55:41Z</time>
      </trkpt>
      <trkpt lat="47.40408" lon="6.51092">
        <ele>322.2</ele>
        <time>2013-02-19T15:55:46Z</time>
      </trkpt>
      <trkpt lat="47.40402" lon="6.5109">
        <ele>322.2</ele>
        <time>2013-02-19T15:55:51Z</time>
      </trkpt>
      <trkpt lat="47.40395" lon="6.51085">
        <ele>322.1</ele>
        <time>2013-02-19T15:55:56Z</time>
      </trkpt>
      <trkpt lat="47.40385" lon="6.51077">
        <ele>322.3</ele>
        <time>2013-02-19T15:56:01Z</time>
      </trkpt>
      <trkpt lat="47.40378" lon="6.5107">
        <ele>321.9</ele>
        <time>2013-02-19T15:56:06Z</time>
      </trkpt>
      <trkpt lat="47.40372" lon="6.51068">
        <ele>322.4</ele>
        <time>2013-02-19T15:56:11Z</time>
      </trkpt>
      <trkpt lat="47.40367" lon="6.51065">
        <ele>322.1</ele>
        <time>2013-02-19T15:56:16Z</time>
      </trkpt>
      <trkpt lat="47.40362" lon="6.51062">
        <ele>322</ele>
        <time>2013-02-19T15:56:21Z</time>
      </trkpt>
      <trkpt lat="47.40355" lon="6.51057">
        <ele>322.4</ele>
        <time>2013-02-19T15:56:26Z</time>
      </trkpt>
      <trkpt lat="47.40348" lon="6.51048">
        <ele>322.6</ele>
        <time>2013-02-19T15:56:31Z</time>
      </trkpt>
      <trkpt lat="47.40342" lon="6.51048">
        <ele>322</ele>
        <time>2013-02-19T15:56:36Z</time>
      </trkpt>
      <trkpt lat="47.40337" lon="6.51045">
        <ele>322.4</ele>
        <time>2013-02-19T15:56:41Z</time>
      </trkpt>
      <trkpt lat="47.4033" lon="6.51042">
        <ele>322.2</ele>
        <time>2013-02-19T15:56:46Z</time>
      </trkpt>
      <trkpt lat="47.40325" lon="6.51035">
        <ele>322.2</ele>
        <time>2013-02-19T15:56:51Z</time>
      </trkpt>
      <trkpt lat="47.40317" lon="6.51028">
        <ele>322.5</ele>
        <time>2013-02-19T15:56:56Z</time>
      </trkpt>
      <trkpt lat="47.4031" lon="6.51022">
        <ele>322.1</ele>
        <time>2013-02-19T15:57:01Z</time>
      </trkpt>
      <trkpt lat="47.40303" lon="6.51017">
        <ele>322.5</ele>
        <time>2013-02-19T15:57:06Z</time>
      </trkpt>
      <trkpt lat="47.40298" lon="6.51008">
        <ele>322.3</ele>
        <time>2013-02-19T15:57:11Z</time>
      </trkpt>
      <trkpt lat="47.403" lon="6.50997">
        <ele>322</ele>
        <time>2013-02-19T15:57:16Z</time>
      </trkpt>
      <trkpt lat="47.40303" lon="6.50987">
        <ele>321.7</ele>
        <time>2013-02-19T15:57:21Z</time>
      </trkpt>
      <trkpt lat="47.40308" lon="6.50978">
        <ele>322</ele>
        <time>2013-02-19T15:57:26Z</time>
      </trkpt>
      <trkpt lat="47.4031" lon="6.5097">
        <ele>322.3</ele>
        <time>2013-02-19T15:57:31Z</time>
      </trkpt>
      <trkpt lat="47.40312" lon="6.50962">
        <ele>322.1</ele>
        <time>2013-02-19T15:57:36Z</time>
      </trkpt>
      <trkpt lat="47.40315" lon="6.50955">
        <ele>322.2</ele>
        <time>2013-02-19T15:57:41Z</time>
      </trkpt>
      <trkpt lat="47.40318" lon="6.50948">
        <ele>321.8</ele>
        <time>2013-02-19T15:57:46Z</time>
      </trkpt>
      <trkpt lat="47.4032" lon="6.5094">
        <ele>322.1</ele>
        <time>2013-02-19T15:57:51Z</time>
      </trkpt>
      <trkpt lat="47.40325" lon="6.50932">
        <ele>322.3</ele>
        <time>2013-02-19T15:57:56Z</time>
      </trkpt>
      <trkpt lat="47.40328" lon="6.5092">
        <ele>321.8</ele>
        <time>2013-02-19T15:58:01Z</time>
      </trkpt>
      <trkpt lat="47.40335" lon="6.5091">
        <ele>321.5</ele>
        <time>2013-02-19T15:58:06Z</time>
      </trkpt>
      <trkpt lat="47.40338" lon="6.509">
        <ele>321.5</ele>
        <time>2013-02-19T15:58:11Z</time>
      </trkpt>
      <trkpt lat="47.40338" lon="6.50892">
        <ele>321.5</ele>
        <time>2013-02-19T15:58:16Z</time>
      </trkpt>
      <trkpt lat="47.40342" lon="6.50883">
        <ele>321.6</ele>
        <time>2013-02-19T15:58:21Z</time>
      </trkpt>
      <trkpt lat="47.40345" lon="6.50873">
        <ele>322.1</ele>
        <time>2013-02-19T15:58:26Z</time>
      </trkpt>
      <trkpt lat="47.40347" lon="6.50863">
        <ele>322.3</ele>
        <time>2013-02-19T15:58:31Z</time>
      </trkpt>
      <trkpt lat="47.40348" lon="6.50855">
        <ele>322.6</ele>
        <time>2013-02-19T15:58:36Z</time>
      </trkpt>
      <trkpt lat="47.40352" lon="6.50847">
        <ele>322.7</ele>
        <time>2013-02-19T15:58:41Z</time>
      </trkpt>
      <trkpt lat="47.40353" lon="6.50837">
        <ele>323.8</ele>
        <time>2013-02-19T15:58:46Z</time>
      </trkpt>
      <trkpt lat="47.40353" lon="6.50832">
        <ele>324.6</ele>
        <time>2013-02-19T15:58:51Z</time>
      </trkpt>
      <trkpt lat="47.40353" lon="6.50822">
        <ele>324.7</ele>
        <time>2013-02-19T15:58:56Z</time>
      </trkpt>
      <trkpt lat="47.40355" lon="6.5081">
        <ele>325.2</ele>
        <time>2013-02-19T15:59:01Z</time>
      </trkpt>
      <trkpt lat="47.40357" lon="6.508">
        <ele>326.5</ele>
        <time>2013-02-19T15:59:06Z</time>
      </trkpt>
      <trkpt lat="47.40357" lon="6.50792">
        <ele>327.6</ele>
        <time>2013-02-19T15:59:11Z</time>
      </trkpt>
      <trkpt lat="47.40358" lon="6.50783">
        <ele>328.3</ele>
        <time>2013-02-19T15:59:16Z</time>
      </trkpt>
      <trkpt lat="47.40358" lon="6.50772">
        <ele>329.4</ele>
        <time>2013-02-19T15:59:21Z</time>
      </trkpt>
      <trkpt lat="47.40355" lon="6.50762">
        <ele>329.2</ele>
        <time>2013-02-19T15:59:26Z</time>
      </trkpt>
      <trkpt lat="47.4035" lon="6.50752">
        <ele>329.2</ele>
        <time>2013-02-19T15:59:31Z</time>
      </trkpt>
      <trkpt lat="47.40347" lon="6.50745">
        <ele>328.9</ele>
        <time>2013-02-19T15:59:36Z</time>
      </trkpt>
      <trkpt lat="47.40343" lon="6.50737">
        <ele>329.5</ele>
        <time>2013-02-19T15:59:41Z</time>
      </trkpt>
      <trkpt lat="47.4034" lon="6.5073">
        <ele>329.3</ele>
        <time>2013-02-19T15:59:46Z</time>
      </trkpt>
      <trkpt lat="47.40337" lon="6.50723">
        <ele>329.2</ele>
        <time>2013-02-19T15:59:51Z</time>
      </trkpt>
      <trkpt lat="47.40333" lon="6.50713">
        <ele>329.8</ele>
        <time>2013-02-19T15:59:56Z</time>
      </trkpt>
      <trkpt lat="47.40328" lon="6.50705">
        <ele>329.5</ele>
        <time>2013-02-19T16:00:01Z</time>
      </trkpt>
      <trkpt lat="47.40323" lon="6.50695">
        <ele>330.8</ele>
        <time>2013-02-19T16:00:06Z</time>
      </trkpt>
      <trkpt lat="47.40318" lon="6.50687">
        <ele>328.1</ele>
        <time>2013-02-19T16:00:11Z</time>
      </trkpt>
      <trkpt lat="47.40313" lon="6.5068">
        <ele>329.1</ele>
        <time>2013-02-19T16:00:16Z</time>
      </trkpt>
      <trkpt lat="47.40308" lon="6.50673">
        <ele>329.8</ele>
        <time>2013-02-19T16:00:21Z</time>
      </trkpt>
      <trkpt lat="47.4031" lon="6.50668">
        <ele>330.1</ele>
        <time>2013-02-19T16:00:26Z</time>
      </trkpt>
      <trkpt lat="47.40317" lon="6.50667">
        <ele>330.3</ele>
        <time>2013-02-19T16:00:31Z</time>
      </trkpt>
      <trkpt lat="47.40323" lon="6.50665">
        <ele>329.5</ele>
        <time>2013-02-19T16:00:36Z</time>
      </trkpt>
      <trkpt lat="47.40332" lon="6.50668">
        <ele>329.6</ele>
        <time>2013-02-19T16:00:41Z</time>
      </trkpt>
      <trkpt lat="47.40338" lon="6.50672">
        <ele>330</ele>
        <time>2013-02-19T16:00:46Z</time>
      </trkpt>
      <trkpt lat="47.40345" lon="6.50678">
        <ele>329.7</ele>
        <time>2013-02-19T16:00:51Z</time>
      </trkpt>
      <trkpt lat="47.40352" lon="6.50683">
        <ele>330</ele>
        <time>2013-02-19T16:00:56Z</time>
      </trkpt>
      <trkpt lat="47.40358" lon="6.50688">
        <ele>329.9</ele>
        <time>2013-02-19T16:01:01Z</time>
      </trkpt>
      <trkpt lat="47.40365" lon="6.50695">
        <ele>330.2</ele>
        <time>2013-02-19T16:01:06Z</time>
      </trkpt>
      <trkpt lat="47.40373" lon="6.507">
        <ele>330.8</ele>
        <time>2013-02-19T16:01:11Z</time>
      </trkpt>
      <trkpt lat="47.40378" lon="6.50703">
        <ele>330.9</ele>
        <time>2013-02-19T16:01:16Z</time>
      </trkpt>
      <trkpt lat="47.40385" lon="6.5071">
        <ele>331.4</ele>
        <time>2013-02-19T16:01:21Z</time>
      </trkpt>
      <trkpt lat="47.40392" lon="6.50713">
        <ele>332.1</ele>
        <time>2013-02-19T16:01:26Z</time>
      </trkpt>
      <trkpt lat="47.40397" lon="6.50717">
        <ele>332.4</ele>
        <time>2013-02-19T16:01:31Z</time>
      </trkpt>
      <trkpt lat="47.40403" lon="6.50717">
        <ele>333.2</ele>
        <time>2013-02-19T16:01:36Z</time>
      </trkpt>
      <trkpt lat="47.40408" lon="6.50715">
        <ele>332.7</ele>
        <time>2013-02-19T16:01:41Z</time>
      </trkpt>
      <trkpt lat="47.40412" lon="6.5071">
        <ele>335</ele>
        <time>2013-02-19T16:01:46Z</time>
      </trkpt>
      <trkpt lat="47.40417" lon="6.50705">
        <ele>334.4</ele>
        <time>2013-02-19T16:01:51Z</time>
      </trkpt>
      <trkpt lat="47.40423" lon="6.507">
        <ele>334.6</ele>
        <time>2013-02-19T16:01:56Z</time>
      </trkpt>
      <trkpt lat="47.40428" lon="6.50693">
        <ele>335.4</ele>
        <time>2013-02-19T16:02:01Z</time>
      </trkpt>
      <trkpt lat="47.40433" lon="6.50687">
        <ele>336.1</ele>
        <time>2013-02-19T16:02:06Z</time>
      </trkpt>
      <trkpt lat="47.40438" lon="6.5068">
        <ele>336.9</ele>
        <time>2013-02-19T16:02:11Z</time>
      </trkpt>
      <trkpt lat="47.40443" lon="6.50675">
        <ele>337.2</ele>
        <time>2013-02-19T16:02:16Z</time>
      </trkpt>
      <trkpt lat="47.40447" lon="6.5067">
        <ele>337.9</ele>
        <time>2013-02-19T16:02:21Z</time>
      </trkpt>
      <trkpt lat="47.40453" lon="6.50663">
        <ele>338.2</ele>
        <time>2013-02-19T16:02:26Z</time>
      </trkpt>
      <trkpt lat="47.40458" lon="6.50658">
        <ele>338.6</ele>
        <time>2013-02-19T16:02:31Z</time>
      </trkpt>
      <trkpt lat="47.40463" lon="6.50652">
        <ele>339.1</ele>
        <time>2013-02-19T16:02:36Z</time>
      </trkpt>
      <trkpt lat="47.40467" lon="6.50648">
        <ele>339.1</ele>
        <time>2013-02-19T16:02:41Z</time>
      </trkpt>
      <trkpt lat="47.40472" lon="6.5064">
        <ele>339.6</ele>
        <time>2013-02-19T16:02:46Z</time>
      </trkpt>
      <trkpt lat="47.4048" lon="6.50635">
        <ele>339.9</ele>
        <time>2013-02-19T16:02:51Z</time>
      </trkpt>
      <trkpt lat="47.40487" lon="6.50628">
        <ele>340.5</ele>
        <time>2013-02-19T16:02:56Z</time>
      </trkpt>
      <trkpt lat="47.40495" lon="6.50618">
        <ele>341.3</ele>
        <time>2013-02-19T16:03:01Z</time>
      </trkpt>
      <trkpt lat="47.40502" lon="6.5061">
        <ele>342</ele>
        <time>2013-02-19T16:03:06Z</time>
      </trkpt>
      <trkpt lat="47.40505" lon="6.50602">
        <ele>343</ele>
        <time>2013-02-19T16:03:11Z</time>
      </trkpt>
      <trkpt lat="47.4051" lon="6.50597">
        <ele>343.6</ele>
        <time>2013-02-19T16:03:16Z</time>
      </trkpt>
      <trkpt lat="47.40515" lon="6.50597">
        <ele>343.9</ele>
        <time>2013-02-19T16:03:21Z</time>
      </trkpt>
      <trkpt lat="47.40518" lon="6.50588">
        <ele>345.4</ele>
        <time>2013-02-19T16:03:26Z</time>
      </trkpt>
      <trkpt lat="47.40523" lon="6.50583">
        <ele>346.2</ele>
        <time>2013-02-19T16:03:31Z</time>
      </trkpt>
      <trkpt lat="47.4053" lon="6.50575">
        <ele>346.5</ele>
        <time>2013-02-19T16:03:36Z</time>
      </trkpt>
      <trkpt lat="47.40535" lon="6.50568">
        <ele>346.8</ele>
        <time>2013-02-19T16:03:41Z</time>
      </trkpt>
      <trkpt lat="47.40542" lon="6.50562">
        <ele>348.1</ele>
        <time>2013-02-19T16:03:46Z</time>
      </trkpt>
      <trkpt lat="47.40547" lon="6.50555">
        <ele>348.1</ele>
        <time>2013-02-19T16:03:51Z</time>
      </trkpt>
      <trkpt lat="47.40553" lon="6.50548">
        <ele>349.2</ele>
        <time>2013-02-19T16:03:56Z</time>
      </trkpt>
      <trkpt lat="47.40558" lon="6.50542">
        <ele>349.7</ele>
        <time>2013-02-19T16:04:01Z</time>
      </trkpt>
      <trkpt lat="47.40563" lon="6.50537">
        <ele>350.3</ele>
        <time>2013-02-19T16:04:06Z</time>
      </trkpt>
      <trkpt lat="47.40568" lon="6.5053">
        <ele>350.5</ele>
        <time>2013-02-19T16:04:11Z</time>
      </trkpt>
      <trkpt lat="47.40573" lon="6.50525">
        <ele>351.7</ele>
        <time>2013-02-19T16:04:16Z</time>
      </trkpt>
      <trkpt lat="47.40578" lon="6.50517">
        <ele>351.8</ele>
        <time>2013-02-19T16:04:21Z</time>
      </trkpt>
      <trkpt lat="47.40583" lon="6.50508">
        <ele>352.1</ele>
        <time>2013-02-19T16:04:26Z</time>
      </trkpt>
      <trkpt lat="47.40588" lon="6.50502">
        <ele>352.7</ele>
        <time>2013-02-19T16:04:31Z</time>
      </trkpt>
      <trkpt lat="47.40593" lon="6.50493">
        <ele>352.2</ele>
        <time>2013-02-19T16:04:36Z</time>
      </trkpt>
      <trkpt lat="47.406" lon="6.50487">
        <ele>352.6</ele>
        <time>2013-02-19T16:04:41Z</time>
      </trkpt>
      <trkpt lat="47.40603" lon="6.50478">
        <ele>352.8</ele>
        <time>2013-02-19T16:04:46Z</time>
      </trkpt>
      <trkpt lat="47.40608" lon="6.50472">
        <ele>353.2</ele>
        <time>2013-02-19T16:04:51Z</time>
      </trkpt>
      <trkpt lat="47.40613" lon="6.50462">
        <ele>352.9</ele>
        <time>2013-02-19T16:04:56Z</time>
      </trkpt>
      <trkpt lat="47.40618" lon="6.50455">
        <ele>353.3</ele>
        <time>2013-02-19T16:05:01Z</time>
      </trkpt>
      <trkpt lat="47.40623" lon="6.50447">
        <ele>353.6</ele>
        <time>2013-02-19T16:05:06Z</time>
      </trkpt>
      <trkpt lat="47.40628" lon="6.50438">
        <ele>354</ele>
        <time>2013-02-19T16:05:11Z</time>
      </trkpt>
      <trkpt lat="47.40632" lon="6.5043">
        <ele>353.7</ele>
        <time>2013-02-19T16:05:16Z</time>
      </trkpt>
      <trkpt lat="47.40637" lon="6.50423">
        <ele>354.2</ele>
        <time>2013-02-19T16:05:21Z</time>
      </trkpt>
      <trkpt lat="47.4064" lon="6.50417">
        <ele>354.5</ele>
        <time>2013-02-19T16:05:26Z</time>
      </trkpt>
      <trkpt lat="47.40645" lon="6.50408">
        <ele>354.5</ele>
        <time>2013-02-19T16:05:31Z</time>
      </trkpt>
      <trkpt lat="47.4065" lon="6.50402">
        <ele>354.9</ele>
        <time>2013-02-19T16:05:36Z</time>
      </trkpt>
      <trkpt lat="47.40653" lon="6.50393">
        <ele>354.8</ele>
        <time>2013-02-19T16:05:41Z</time>
      </trkpt>
      <trkpt lat="47.40658" lon="6.50385">
        <ele>354.8</ele>
        <time>2013-02-19T16:05:46Z</time>
      </trkpt>
      <trkpt lat="47.40662" lon="6.50377">
        <ele>355</ele>
        <time>2013-02-19T16:05:51Z</time>
      </trkpt>
      <trkpt lat="47.40667" lon="6.5037">
        <ele>355.1</ele>
        <time>2013-02-19T16:05:56Z</time>
      </trkpt>
      <trkpt lat="47.40672" lon="6.50363">
        <ele>354.9</ele>
        <time>2013-02-19T16:06:01Z</time>
      </trkpt>
      <trkpt lat="47.40675" lon="6.50355">
        <ele>354.9</ele>
        <time>2013-02-19T16:06:06Z</time>
      </trkpt>
      <trkpt lat="47.40682" lon="6.50348">
        <ele>355.1</ele>
        <time>2013-02-19T16:06:11Z</time>
      </trkpt>
      <trkpt lat="47.40687" lon="6.5034">
        <ele>355.3</ele>
        <time>2013-02-19T16:06:16Z</time>
      </trkpt>
      <trkpt lat="47.40693" lon="6.50332">
        <ele>355</ele>
        <time>2013-02-19T16:06:21Z</time>
      </trkpt>
      <trkpt lat="47.40698" lon="6.50323">
        <ele>355</ele>
        <time>2013-02-19T16:06:26Z</time>
      </trkpt>
      <trkpt lat="47.40703" lon="6.50315">
        <ele>355.6</ele>
        <time>2013-02-19T16:06:31Z</time>
      </trkpt>
      <trkpt lat="47.40708" lon="6.50308">
        <ele>355.2</ele>
        <time>2013-02-19T16:06:36Z</time>
      </trkpt>
      <trkpt lat="47.40715" lon="6.503">
        <ele>355.3</ele>
        <time>2013-02-19T16:06:41Z</time>
      </trkpt>
      <trkpt lat="47.4072" lon="6.50292">
        <ele>355.2</ele>
        <time>2013-02-19T16:06:46Z</time>
      </trkpt>
      <trkpt lat="47.40725" lon="6.50282">
        <ele>355.7</ele>
        <time>2013-02-19T16:06:51Z</time>
      </trkpt>
      <trkpt lat="47.40728" lon="6.50273">
        <ele>355.6</ele>
        <time>2013-02-19T16:06:56Z</time>
      </trkpt>
      <trkpt lat="47.40735" lon="6.50265">
        <ele>356.1</ele>
        <time>2013-02-19T16:07:01Z</time>
      </trkpt>
      <trkpt lat="47.40738" lon="6.50258">
        <ele>356.2</ele>
        <time>2013-02-19T16:07:06Z</time>
      </trkpt>
      <trkpt lat="47.40743" lon="6.50252">
        <ele>356.8</ele>
        <time>2013-02-19T16:07:11Z</time>
      </trkpt>
      <trkpt lat="47.40748" lon="6.50243">
        <ele>357</ele>
        <time>2013-02-19T16:07:16Z</time>
      </trkpt>
      <trkpt lat="47.40753" lon="6.50237">
        <ele>357.2</ele>
        <time>2013-02-19T16:07:21Z</time>
      </trkpt>
      <trkpt lat="47.40758" lon="6.5023">
        <ele>357.5</ele>
        <time>2013-02-19T16:07:26Z</time>
      </trkpt>
      <trkpt lat="47.40763" lon="6.50222">
        <ele>358</ele>
        <time>2013-02-19T16:07:31Z</time>
      </trkpt>
      <trkpt lat="47.40768" lon="6.50217">
        <ele>357</ele>
        <time>2013-02-19T16:07:36Z</time>
      </trkpt>
      <trkpt lat="47.40773" lon="6.5021">
        <ele>357.3</ele>
        <time>2013-02-19T16:07:41Z</time>
      </trkpt>
      <trkpt lat="47.40777" lon="6.50202">
        <ele>357.6</ele>
        <time>2013-02-19T16:07:46Z</time>
      </trkpt>
      <trkpt lat="47.40782" lon="6.50195">
        <ele>357.3</ele>
        <time>2013-02-19T16:07:51Z</time>
      </trkpt>
      <trkpt lat="47.40787" lon="6.50188">
        <ele>357.3</ele>
        <time>2013-02-19T16:07:56Z</time>
      </trkpt>
      <trkpt lat="47.4079" lon="6.50182">
        <ele>357.5</ele>
        <time>2013-02-19T16:08:01Z</time>
      </trkpt>
      <trkpt lat="47.40795" lon="6.50175">
        <ele>357.8</ele>
        <time>2013-02-19T16:08:06Z</time>
      </trkpt>
      <trkpt lat="47.40798" lon="6.50168">
        <ele>357.4</ele>
        <time>2013-02-19T16:08:11Z</time>
      </trkpt>
      <trkpt lat="47.40802" lon="6.50162">
        <ele>357</ele>
        <time>2013-02-19T16:08:16Z</time>
      </trkpt>
      <trkpt lat="47.40807" lon="6.50152">
        <ele>357.1</ele>
        <time>2013-02-19T16:08:21Z</time>
      </trkpt>
      <trkpt lat="47.40812" lon="6.50145">
        <ele>356.8</ele>
        <time>2013-02-19T16:08:26Z</time>
      </trkpt>
      <trkpt lat="47.40813" lon="6.50138">
        <ele>356.6</ele>
        <time>2013-02-19T16:08:31Z</time>
      </trkpt>
    </trkseg>
  </trk>
  <rte>
      <rtept lat="47.40822" lon="6.50125">
        <ele>313.4</ele>
      </rtept>
      <rtept lat="47.40813" lon="6.50138">
        <ele>313.3</ele>
      </rtept>
    </rte>
</gpx>